Home > Products > Valid Products > TAF

000
FTUS41 KCTP 231515 AAA
TAFMDT
TAF AMD
KMDT 231515Z 2315/2412 11008KT P6SM OVC030
     FM231600 10006KT P6SM OVC035
     FM240900 09004KT 5SM BR OVC025=



000
FTUS41 KCTP 231515 AAA
TAFMDT
TAF AMD
KMDT 231515Z 2315/2412 11008KT P6SM OVC030
     FM231600 10006KT P6SM OVC035
     FM240900 09004KT 5SM BR OVC025=



000
FTUS41 KCTP 231514 AAA
TAFIPT
TAF AMD
KIPT 231514Z 2315/2412 08010KT P6SM OVC015
     FM231800 15006KT P6SM BKN035
     FM240500 VRB03KT 5SM BR OVC025
     FM240900 VRB03KT 2SM BR OVC003=



000
FTUS41 KCTP 231514 AAA
TAFIPT
TAF AMD
KIPT 231514Z 2315/2412 08010KT P6SM OVC015
     FM231800 15006KT P6SM BKN035
     FM240500 VRB03KT 5SM BR OVC025
     FM240900 VRB03KT 2SM BR OVC003=



000
FTUS41 KCTP 231513 AAB
TAFUNV
TAF AMD
KUNV 231513Z 2315/2412 VRB05KT P6SM OVC015
     FM231800 15006KT P6SM BKN035
     FM240400 VRB03KT 5SM BR BKN025=



000
FTUS41 KCTP 231513 AAB
TAFUNV
TAF AMD
KUNV 231513Z 2315/2412 VRB05KT P6SM OVC015
     FM231800 15006KT P6SM BKN035
     FM240400 VRB03KT 5SM BR BKN025=



000
FTUS41 KCTP 231512 AAA
TAFAOO
TAF AMD
KAOO 231512Z 2315/2412 VRB03KT P6SM OVC007
     FM231700 13004KT P6SM OVC020
     FM231900 13004KT P6SM BKN035
     FM240500 VRB03KT 5SM BR BKN025=



000
FTUS41 KCTP 231512 AAA
TAFAOO
TAF AMD
KAOO 231512Z 2315/2412 VRB03KT P6SM OVC007
     FM231700 13004KT P6SM OVC020
     FM231900 13004KT P6SM BKN035
     FM240500 VRB03KT 5SM BR BKN025=



000
FTUS41 KCTP 231506 AAA
TAFJST
TAF AMD
KJST 231506Z 2315/2412 11005KT P6SM BKN025
     FM231800 11005KT P6SM BKN035
     FM240500 14005KT 5SM BR BKN025
     FM240900 12004KT 1/2SM FG OVC003=



000
FTUS41 KCTP 231506 AAA
TAFJST
TAF AMD
KJST 231506Z 2315/2412 11005KT P6SM BKN025
     FM231800 11005KT P6SM BKN035
     FM240500 14005KT 5SM BR BKN025
     FM240900 12004KT 1/2SM FG OVC003=



000
FTUS41 KCTP 231505 AAA
TAFBFD
TAF AMD
KBFD 231505Z 2315/2412 09007KT P6SM BKN020 OVC035
     FM231700 12005KT P6SM BKN035
     FM240300 11003KT 4SM BR BKN015
     FM240700 VRB03KT 1/2SM FG OVC002=



000
FTUS41 KCTP 231505 AAA
TAFBFD
TAF AMD
KBFD 231505Z 2315/2412 09007KT P6SM BKN020 OVC035
     FM231700 12005KT P6SM BKN035
     FM240300 11003KT 4SM BR BKN015
     FM240700 VRB03KT 1/2SM FG OVC002=



000
FTUS41 KCTP 231211 AAA
TAFUNV
TAF AMD
KUNV 231211Z 2312/2412 VRB03KT 5SM BR OVC010
     FM231300 10004KT 3SM BR OVC020
     FM231800 15006KT P6SM BKN035
     FM240400 VRB03KT 5SM BR BKN025=



000
FTUS41 KCTP 231211 AAA
TAFUNV
TAF AMD
KUNV 231211Z 2312/2412 VRB03KT 5SM BR OVC010
     FM231300 10004KT 3SM BR OVC020
     FM231800 15006KT P6SM BKN035
     FM240400 VRB03KT 5SM BR BKN025=



000
FTUS41 KCTP 231140
TAFIPT
TAF
KIPT 231140Z 2312/2412 06013KT P6SM VCSH SCT005 OVC020
     FM231300 09007KT P6SM BKN025
     FM231800 15006KT P6SM BKN035
     FM240500 VRB03KT 5SM BR OVC025
     FM240900 VRB03KT 2SM BR OVC003=



000
FTUS41 KCTP 231140
TAFJST
TAF
KJST 231140Z 2312/2412 21003KT 5SM BR OVC010
     FM231400 13004KT 5SM BR OVC015
     FM231600 11006KT P6SM BKN025
     FM231800 11005KT P6SM BKN035
     FM240500 14005KT 5SM BR BKN025
     FM240900 12004KT 1/2SM FG OVC003=



000
FTUS41 KCTP 231140
TAFAOO
TAF
KAOO 231140Z 2312/2412 VRB03KT 4SM BR SCT008 OVC015
      TEMPO 2312/2313 1SM -SHRA BR OVC008
     FM231300 VRB03KT 4SM BR OVC015
     FM231600 13004KT P6SM OVC025
     FM231800 13004KT P6SM BKN035
     FM240500 VRB03KT 5SM BR BKN025=



000
FTUS41 KCTP 231140
TAFUNV
TAF
KUNV 231140Z 2312/2412 VRB03KT 5SM BR OVC006
     FM231300 10004KT 3SM BR OVC020
     FM231800 15006KT P6SM BKN035
     FM240400 VRB03KT 5SM BR BKN025=



000
FTUS41 KCTP 231140
TAFMDT
TAF
KMDT 231140Z 2312/2412 14008KT P6SM VCSH BKN025 OVC040
     FM231600 10006KT P6SM OVC035
     FM240900 09004KT 5SM BR OVC025=



000
FTUS41 KCTP 231140
TAFJST
TAF
KJST 231140Z 2312/2412 21003KT 5SM BR OVC010
     FM231400 13004KT 5SM BR OVC015
     FM231600 11006KT P6SM BKN025
     FM231800 11005KT P6SM BKN035
     FM240500 14005KT 5SM BR BKN025
     FM240900 12004KT 1/2SM FG OVC003=



000
FTUS41 KCTP 231140
TAFBFD
TAF
KBFD 231140Z 2312/2412 VRB03KT 1/4SM FG OVC002
     FM231300 10004KT 3SM BR OVC010
     FM231500 09006KT 6SM BR OVC025
     FM231700 12005KT P6SM BKN035
     FM240300 11003KT 4SM BR BKN015
     FM240700 VRB03KT 1/2SM FG OVC002=



000
FTUS41 KCTP 231140
TAFBFD
TAF
KBFD 231140Z 2312/2412 VRB03KT 1/4SM FG OVC002
     FM231300 10004KT 3SM BR OVC010
     FM231500 09006KT 6SM BR OVC025
     FM231700 12005KT P6SM BKN035
     FM240300 11003KT 4SM BR BKN015
     FM240700 VRB03KT 1/2SM FG OVC002=



000
FTUS41 KCTP 231140
TAFIPT
TAF
KIPT 231140Z 2312/2412 06013KT P6SM VCSH SCT005 OVC020
     FM231300 09007KT P6SM BKN025
     FM231800 15006KT P6SM BKN035
     FM240500 VRB03KT 5SM BR OVC025
     FM240900 VRB03KT 2SM BR OVC003=



000
FTUS41 KCTP 231140
TAFMDT
TAF
KMDT 231140Z 2312/2412 14008KT P6SM VCSH BKN025 OVC040
     FM231600 10006KT P6SM OVC035
     FM240900 09004KT 5SM BR OVC025=



000
FTUS41 KCTP 231140
TAFUNV
TAF
KUNV 231140Z 2312/2412 VRB03KT 5SM BR OVC006
     FM231300 10004KT 3SM BR OVC020
     FM231800 15006KT P6SM BKN035
     FM240400 VRB03KT 5SM BR BKN025=



000
FTUS41 KCTP 231140
TAFAOO
TAF
KAOO 231140Z 2312/2412 VRB03KT 4SM BR SCT008 OVC015
      TEMPO 2312/2313 1SM -SHRA BR OVC008
     FM231300 VRB03KT 4SM BR OVC015
     FM231600 13004KT P6SM OVC025
     FM231800 13004KT P6SM BKN035
     FM240500 VRB03KT 5SM BR BKN025=



000
FTUS41 KCTP 231012 AAD
TAFAOO
TAF AMD
KAOO 231012Z 2310/2406 18003KT 4SM BR OVC007
      TEMPO 2310/2313 VRB03KT 3/4SM SHRA BR OVC003
     FM231300 VRB03KT 3SM BR OVC015
     FM231600 10004KT P6SM BKN035
     FM240500 VRB03KT 5SM BR BKN025=



000
FTUS41 KCTP 231012 AAD
TAFAOO
TAF AMD
KAOO 231012Z 2310/2406 18003KT 4SM BR OVC007
      TEMPO 2310/2313 VRB03KT 3/4SM SHRA BR OVC003
     FM231300 VRB03KT 3SM BR OVC015
     FM231600 10004KT P6SM BKN035
     FM240500 VRB03KT 5SM BR BKN025=



000
FTUS41 KCTP 231010 AAC
TAFJST
TAF AMD
KJST 231010Z 2310/2406 VRB03KT 4SM BR OVC005
     FM231300 13004KT 3SM BR OVC015
     FM231600 16006KT P6SM BKN035
     FM240500 14005KT 5SM BR BKN025=



000
FTUS41 KCTP 231010 AAC
TAFJST
TAF AMD
KJST 231010Z 2310/2406 VRB03KT 4SM BR OVC005
     FM231300 13004KT 3SM BR OVC015
     FM231600 16006KT P6SM BKN035
     FM240500 14005KT 5SM BR BKN025=



000
FTUS41 KCTP 231003 AAB
TAFBFD
TAF AMD
KBFD 231003Z 2310/2406 VRB03KT 1/4SM FG OVC002
     FM231300 10004KT 3SM BR OVC025
     FM231600 12005KT P6SM BKN035
     FM240300 11003KT 4SM BR BKN025=



000
FTUS41 KCTP 230920 AAC
TAFIPT
TAF AMD
KIPT 230920Z 2309/2406 08010KT P6SM VCSH SCT005 OVC015
      TEMPO 2310/2312 3/4SM -SHRA BR OVC007
     FM231300 VRB03KT 5SM BR BKN025
     FM231500 15006KT P6SM VCSH BKN035=



000
FTUS41 KCTP 230920 AAC
TAFIPT
TAF AMD
KIPT 230920Z 2309/2406 08010KT P6SM VCSH SCT005 OVC015
      TEMPO 2310/2312 3/4SM -SHRA BR OVC007
     FM231300 VRB03KT 5SM BR BKN025
     FM231500 15006KT P6SM VCSH BKN035=



000
FTUS41 KCTP 230919 AAA
TAFUNV
TAF AMD
KUNV 230919Z 2309/2406 VRB03KT 4SM BR OVC015
      TEMPO 2310/2312 3/4SM BR OVC007
     FM231300 10004KT 3SM BR OVC025
     FM231500 15006KT P6SM BKN035
     FM240400 VRB03KT 5SM BR BKN025=



000
FTUS41 KCTP 230919 AAA
TAFUNV
TAF AMD
KUNV 230919Z 2309/2406 VRB03KT 4SM BR OVC015
      TEMPO 2310/2312 3/4SM BR OVC007
     FM231300 10004KT 3SM BR OVC025
     FM231500 15006KT P6SM BKN035
     FM240400 VRB03KT 5SM BR BKN025=



000
FTUS41 KCTP 230918 AAC
TAFAOO
TAF AMD
KAOO 230918Z 2309/2406 18003KT 4SM SHRA BR BKN008 OVC015
      TEMPO 2309/2313 VRB03KT 3/4SM BR OVC003
     FM231300 VRB03KT 3SM BR OVC015
     FM231600 10004KT P6SM BKN035
     FM240500 VRB03KT 5SM BR BKN025=



000
FTUS41 KCTP 230918 AAC
TAFAOO
TAF AMD
KAOO 230918Z 2309/2406 18003KT 4SM SHRA BR BKN008 OVC015
      TEMPO 2309/2313 VRB03KT 3/4SM BR OVC003
     FM231300 VRB03KT 3SM BR OVC015
     FM231600 10004KT P6SM BKN035
     FM240500 VRB03KT 5SM BR BKN025=



000
FTUS41 KCTP 230917 AAB
TAFJST
TAF AMD
KJST 230917Z 2309/2406 VRB03KT 4SM BR OVC007
      TEMPO 2310/2313 2SM BR OVC003
     FM231300 13004KT 3SM BR OVC015
     FM231600 16006KT P6SM BKN035
     FM240500 14005KT 5SM BR BKN025=



000
FTUS41 KCTP 230917 AAB
TAFJST
TAF AMD
KJST 230917Z 2309/2406 VRB03KT 4SM BR OVC007
      TEMPO 2310/2313 2SM BR OVC003
     FM231300 13004KT 3SM BR OVC015
     FM231600 16006KT P6SM BKN035
     FM240500 14005KT 5SM BR BKN025=



000
FTUS41 KCTP 230916 AAA
TAFBFD
TAF AMD
KBFD 230916Z 2309/2406 VRB03KT 1SM BR OVC002
      TEMPO 2309/2312 VRB03KT 1/2SM FG OVC002
     FM231300 10004KT 3SM BR OVC025
     FM231600 12005KT P6SM BKN035
     FM240300 11003KT 4SM BR BKN025=



000
FTUS41 KCTP 230916 AAA
TAFBFD
TAF AMD
KBFD 230916Z 2309/2406 VRB03KT 1SM BR OVC002
      TEMPO 2309/2312 VRB03KT 1/2SM FG OVC002
     FM231300 10004KT 3SM BR OVC025
     FM231600 12005KT P6SM BKN035
     FM240300 11003KT 4SM BR BKN025=



000
FTUS41 KCTP 230811 AAA
TAFMDT
TAF AMD
KMDT 230811Z 2308/2406 14008KT P6SM VCSH BKN025 OVC040
     FM231000 12004KT 5SM BR OVC020
     FM231300 12005KT 5SM BR OVC025
     FM231600 16006KT P6SM VCSH BKN035=



000
FTUS41 KCTP 230809 AAB
TAFAOO
TAF AMD
KAOO 230809Z 2308/2406 18004KT 4SM BR OVC015
     FM230900 VRB03KT 1SM BR OVC007
     FM231300 VRB03KT 5SM BR OVC025
     FM231600 10004KT P6SM BKN035
     FM240500 VRB03KT 5SM BR BKN025=



000
FTUS41 KCTP 230809 AAB
TAFIPT
TAF AMD
KIPT 230809Z 2308/2406 07010KT P6SM SCT005 OVC015
     FM230900 VRB03KT 3SM BR OVC005
     FM231300 VRB03KT 5SM BR BKN025
     FM231500 15006KT P6SM VCSH BKN035=



000
FTUS41 KCTP 230809 AAB
TAFAOO
TAF AMD
KAOO 230809Z 2308/2406 18004KT 4SM BR OVC015
     FM230900 VRB03KT 1SM BR OVC007
     FM231300 VRB03KT 5SM BR OVC025
     FM231600 10004KT P6SM BKN035
     FM240500 VRB03KT 5SM BR BKN025=



000
FTUS41 KCTP 230809 AAB
TAFIPT
TAF AMD
KIPT 230809Z 2308/2406 07010KT P6SM SCT005 OVC015
     FM230900 VRB03KT 3SM BR OVC005
     FM231300 VRB03KT 5SM BR BKN025
     FM231500 15006KT P6SM VCSH BKN035=



000
FTUS41 KCTP 230708 AAA
TAFIPT
TAF AMD
KIPT 230708Z 2307/2406 07009KT P6SM VCSH SCT005 OVC015
     FM230900 VRB03KT 1SM BR OVC005
     FM231300 VRB03KT 5SM BR BKN025
     FM231500 15006KT P6SM VCSH BKN035=



000
FTUS41 KCTP 230708 AAA
TAFIPT
TAF AMD
KIPT 230708Z 2307/2406 07009KT P6SM VCSH SCT005 OVC015
     FM230900 VRB03KT 1SM BR OVC005
     FM231300 VRB03KT 5SM BR BKN025
     FM231500 15006KT P6SM VCSH BKN035=



000
FTUS41 KCTP 230706 AAA
TAFJST
TAF AMD
KJST 230706Z 2307/2406 16006KT 5SM BR OVC007
     FM230900 13003KT 1/2SM FG OVC002
     FM231300 13004KT 5SM BR OVC025
     FM231600 16006KT P6SM BKN035
     FM240500 14005KT 5SM BR BKN025=



000
FTUS41 KCTP 230706 AAA
TAFJST
TAF AMD
KJST 230706Z 2307/2406 16006KT 5SM BR OVC007
     FM230900 13003KT 1/2SM FG OVC002
     FM231300 13004KT 5SM BR OVC025
     FM231600 16006KT P6SM BKN035
     FM240500 14005KT 5SM BR BKN025=



000
FTUS41 KCTP 230706 AAA
TAFAOO
TAF AMD
KAOO 230706Z 2307/2406 VRB03KT 4SM BR OVC007
     FM230900 VRB03KT 1/2SM FG OVC005
     FM231300 VRB03KT 5SM BR OVC025
     FM231600 10004KT P6SM BKN035
     FM240500 VRB03KT 5SM BR BKN025=



000
FTUS41 KCTP 230706 AAA
TAFAOO
TAF AMD
KAOO 230706Z 2307/2406 VRB03KT 4SM BR OVC007
     FM230900 VRB03KT 1/2SM FG OVC005
     FM231300 VRB03KT 5SM BR OVC025
     FM231600 10004KT P6SM BKN035
     FM240500 VRB03KT 5SM BR BKN025=



000
FTUS41 KCTP 230533
TAFMDT
TAF
KMDT 230533Z 2306/2406 14008KT P6SM VCSH BKN025 OVC040
     FM230800 12004KT 5SM BR OVC015
     FM231300 12005KT 5SM BR OVC025
     FM231900 16006KT P6SM VCSH BKN035=



000
FTUS41 KCTP 230533
TAFUNV
TAF
KUNV 230533Z 2306/2406 VRB03KT P6SM BKN015 OVC025
     FM230700 VRB03KT 4SM BR OVC015
     FM230900 VRB03KT 1/2SM FG OVC005
     FM231300 10004KT 5SM BR OVC025
     FM231500 15006KT P6SM BKN035
     FM240400 VRB03KT 5SM BR BKN025=



000
FTUS41 KCTP 230533
TAFIPT
TAF
KIPT 230533Z 2306/2406 08009KT 3SM BR VCSH BKN015 OVC025
     FM230700 09005KT 2SM BR OVC008
     FM230900 VRB03KT 1/2SM FG OVC002
     FM231300 VRB03KT 5SM BR BKN025
     FM231500 15006KT P6SM VCSH BKN035=



000
FTUS41 KCTP 230533
TAFBFD
TAF
KBFD 230533Z 2306/2406 VRB03KT 2SM BR OVC002
     FM230800 VRB03KT 1/2SM FG OVC002
     FM231300 10004KT 5SM BR OVC025
     FM231600 12005KT P6SM BKN035
     FM240300 11003KT 4SM BR BKN025=



000
FTUS41 KCTP 230533
TAFJST
TAF
KJST 230533Z 2306/2406 16004KT 6SM BR SCT015 OVC035
     FM230700 14004KT 3SM BR OVC015
     FM230900 13003KT 1/2SM FG OVC002
     FM231300 13004KT 5SM BR OVC025
     FM231600 16006KT P6SM BKN035
     FM240500 14005KT 5SM BR BKN025=



000
FTUS41 KCTP 230533
TAFAOO
TAF
KAOO 230533Z 2306/2406 VRB03KT 5SM BR OVC011
     FM230700 VRB03KT 1SM BR OVC010
     FM230900 VRB03KT 1/2SM FG OVC005
     FM231300 VRB03KT 5SM BR OVC025
     FM231600 10004KT P6SM BKN035
     FM240500 VRB03KT 5SM BR BKN025=



000
FTUS41 KCTP 230533
TAFBFD
TAF
KBFD 230533Z 2306/2406 VRB03KT 2SM BR OVC002
     FM230800 VRB03KT 1/2SM FG OVC002
     FM231300 10004KT 5SM BR OVC025
     FM231600 12005KT P6SM BKN035
     FM240300 11003KT 4SM BR BKN025=



000
FTUS41 KCTP 230533
TAFJST
TAF
KJST 230533Z 2306/2406 16004KT 6SM BR SCT015 OVC035
     FM230700 14004KT 3SM BR OVC015
     FM230900 13003KT 1/2SM FG OVC002
     FM231300 13004KT 5SM BR OVC025
     FM231600 16006KT P6SM BKN035
     FM240500 14005KT 5SM BR BKN025=



000
FTUS41 KCTP 230533
TAFAOO
TAF
KAOO 230533Z 2306/2406 VRB03KT 5SM BR OVC011
     FM230700 VRB03KT 1SM BR OVC010
     FM230900 VRB03KT 1/2SM FG OVC005
     FM231300 VRB03KT 5SM BR OVC025
     FM231600 10004KT P6SM BKN035
     FM240500 VRB03KT 5SM BR BKN025=



000
FTUS41 KCTP 230533
TAFMDT
TAF
KMDT 230533Z 2306/2406 14008KT P6SM VCSH BKN025 OVC040
     FM230800 12004KT 5SM BR OVC015
     FM231300 12005KT 5SM BR OVC025
     FM231900 16006KT P6SM VCSH BKN035=



000
FTUS41 KCTP 230533
TAFUNV
TAF
KUNV 230533Z 2306/2406 VRB03KT P6SM BKN015 OVC025
     FM230700 VRB03KT 4SM BR OVC015
     FM230900 VRB03KT 1/2SM FG OVC005
     FM231300 10004KT 5SM BR OVC025
     FM231500 15006KT P6SM BKN035
     FM240400 VRB03KT 5SM BR BKN025=



000
FTUS41 KCTP 230533
TAFIPT
TAF
KIPT 230533Z 2306/2406 08009KT 3SM BR VCSH BKN015 OVC025
     FM230700 09005KT 2SM BR OVC008
     FM230900 VRB03KT 1/2SM FG OVC002
     FM231300 VRB03KT 5SM BR BKN025
     FM231500 15006KT P6SM VCSH BKN035=



000
FTUS41 KCTP 230502 AAF
TAFIPT
TAF AMD
KIPT 230502Z 2305/2324 08009KT 2SM SHRA BKN007 OVC015
     FM230700 VRB04KT 2SM BR OVC007
     FM230900 VRB03KT 1/2SM FG BKN002
     FM231300 12006KT 5SM BR BKN025
     FM231500 15006KT P6SM VCSH BKN035=



000
FTUS41 KCTP 230502 AAF
TAFIPT
TAF AMD
KIPT 230502Z 2305/2324 08009KT 2SM SHRA BKN007 OVC015
     FM230700 VRB04KT 2SM BR OVC007
     FM230900 VRB03KT 1/2SM FG BKN002
     FM231300 12006KT 5SM BR BKN025
     FM231500 15006KT P6SM VCSH BKN035=



000
FTUS41 KCTP 230501 AAB
TAFUNV
TAF AMD
KUNV 230501Z 2305/2324 VRB03KT P6SM BKN025 OVC040
     FM230700 VRB03KT 4SM BR BKN015
     FM230900 VRB03KT 1/2SM FG BKN002
     FM231300 13006KT 5SM BR BKN025
     FM231500 15006KT P6SM VCSH BKN035=



000
FTUS41 KCTP 230501 AAB
TAFUNV
TAF AMD
KUNV 230501Z 2305/2324 VRB03KT P6SM BKN025 OVC040
     FM230700 VRB03KT 4SM BR BKN015
     FM230900 VRB03KT 1/2SM FG BKN002
     FM231300 13006KT 5SM BR BKN025
     FM231500 15006KT P6SM VCSH BKN035=



000
FTUS41 KCTP 230500 AAB
TAFAOO
TAF AMD
KAOO 230500Z 2305/2324 VRB03KT 5SM BR OVC011
     FM230700 VRB04KT 1SM BR BKN010
     FM230900 VRB03KT 1/2SM FG BKN002
     FM231300 VRB05KT 5SM BR BKN025
     FM231600 15006KT P6SM VCSH BKN035=



000
FTUS41 KCTP 230500 AAB
TAFAOO
TAF AMD
KAOO 230500Z 2305/2324 VRB03KT 5SM BR OVC011
     FM230700 VRB04KT 1SM BR BKN010
     FM230900 VRB03KT 1/2SM FG BKN002
     FM231300 VRB05KT 5SM BR BKN025
     FM231600 15006KT P6SM VCSH BKN035=



000
FTUS41 KCTP 230446 AAC
TAFJST
TAF AMD
KJST 230446Z 2305/2324 15005KT 6SM BR OVC035
     FM230600 VRB04KT 3SM BR OVC025
     FM230800 VRB03KT 1/2SM FG BKN002
     FM231300 VRB05KT 5SM BR BKN025
     FM231600 16006KT P6SM VCSH BKN035=



000
FTUS41 KCTP 230446 AAC
TAFJST
TAF AMD
KJST 230446Z 2305/2324 15005KT 6SM BR OVC035
     FM230600 VRB04KT 3SM BR OVC025
     FM230800 VRB03KT 1/2SM FG BKN002
     FM231300 VRB05KT 5SM BR BKN025
     FM231600 16006KT P6SM VCSH BKN035=



000
FTUS41 KCTP 230445 AAB
TAFBFD
TAF AMD
KBFD 230445Z 2305/2324 VRB03KT 1SM BR OVC007
     FM230700 VRB03KT 1/2SM FG BKN002
     FM231300 VRB05KT 5SM BR BKN025
     FM231600 12006KT P6SM VCSH BKN035=



000
FTUS41 KCTP 230445 AAB
TAFBFD
TAF AMD
KBFD 230445Z 2305/2324 VRB03KT 1SM BR OVC007
     FM230700 VRB03KT 1/2SM FG BKN002
     FM231300 VRB05KT 5SM BR BKN025
     FM231600 12006KT P6SM VCSH BKN035=



000
FTUS41 KCTP 230347 AAE
TAFIPT
TAF AMD
KIPT 230347Z 2304/2324 10008KT P6SM VCSH BKN012
     FM230500 VRB04KT 4SM BR SCT004 BKN025
     FM230900 VRB03KT 1/2SM FG BKN002
     FM231300 12006KT 5SM BR BKN025
     FM231500 15006KT P6SM VCSH BKN035=



000
FTUS41 KCTP 230347 AAE
TAFIPT
TAF AMD
KIPT 230347Z 2304/2324 10008KT P6SM VCSH BKN012
     FM230500 VRB04KT 4SM BR SCT004 BKN025
     FM230900 VRB03KT 1/2SM FG BKN002
     FM231300 12006KT 5SM BR BKN025
     FM231500 15006KT P6SM VCSH BKN035=



000
FTUS41 KCTP 230328 AAB
TAFJST
TAF AMD
KJST 230328Z 2303/2324 15005KT 4SM -SHRA BR SCT009 BKN060
     FM230500 VRB04KT 3SM BR SCT010
     FM230700 VRB03KT 1/2SM FG BKN002
     FM231300 VRB05KT 5SM BR BKN025
     FM231600 16006KT P6SM VCSH BKN035=



000
FTUS41 KCTP 230328 AAA
TAFUNV
TAF AMD
KUNV 230328Z 2303/2324 VRB05KT 5SM BR BKN030
     FM230700 VRB03KT 4SM BR BKN018
     FM230900 VRB03KT 1/2SM FG BKN002
     FM231300 13006KT 5SM BR BKN025
     FM231500 15006KT P6SM VCSH BKN035=



000
FTUS41 KCTP 230328 AAA
TAFBFD
TAF AMD
KBFD 230328Z 2303/2324 35004KT P6SM SCT025
     FM230500 VRB03KT 4SM BR SKC
     FM230700 VRB03KT 1/2SM FG BKN002
     FM231300 VRB05KT 5SM BR BKN025
     FM231600 12006KT P6SM VCSH BKN035=



000
FTUS41 KCTP 230328 AAD
TAFIPT
TAF AMD
KIPT 230328Z 2303/2324 10008KT P6SM VCSH BKN015
     FM230500 VRB04KT 4SM BR SCT004 BKN025
     FM230900 VRB03KT 1/2SM FG BKN002
     FM231300 12006KT 5SM BR BKN025
     FM231500 15006KT P6SM VCSH BKN035=



000
FTUS41 KCTP 230328 AAA
TAFAOO
TAF AMD
KAOO 230328Z 2303/2324 16005KT 2SM BR BKN025
     FM230700 VRB04KT 1SM BR BKN015
     FM230900 VRB03KT 1/2SM FG BKN002
     FM231300 VRB05KT 5SM BR BKN025
     FM231600 15006KT P6SM VCSH BKN035=



000
FTUS41 KCTP 230328 AAB
TAFJST
TAF AMD
KJST 230328Z 2303/2324 15005KT 4SM -SHRA BR SCT009 BKN060
     FM230500 VRB04KT 3SM BR SCT010
     FM230700 VRB03KT 1/2SM FG BKN002
     FM231300 VRB05KT 5SM BR BKN025
     FM231600 16006KT P6SM VCSH BKN035=



000
FTUS41 KCTP 230328 AAB
TAFMDT
TAF AMD
KMDT 230328Z 2303/2324 13008KT P6SM VCSH BKN025
     FM230700 12004KT 5SM BR BKN015
     FM231000 VRB03KT 3SM BR BKN009
     FM231300 12006KT 5SM BR BKN025
     FM231900 16006KT P6SM VCSH BKN035=



000
FTUS41 KCTP 230328 AAD
TAFIPT
TAF AMD
KIPT 230328Z 2303/2324 10008KT P6SM VCSH BKN015
     FM230500 VRB04KT 4SM BR SCT004 BKN025
     FM230900 VRB03KT 1/2SM FG BKN002
     FM231300 12006KT 5SM BR BKN025
     FM231500 15006KT P6SM VCSH BKN035=



000
FTUS41 KCTP 230328 AAA
TAFAOO
TAF AMD
KAOO 230328Z 2303/2324 16005KT 2SM BR BKN025
     FM230700 VRB04KT 1SM BR BKN015
     FM230900 VRB03KT 1/2SM FG BKN002
     FM231300 VRB05KT 5SM BR BKN025
     FM231600 15006KT P6SM VCSH BKN035=



000
FTUS41 KCTP 230328 AAA
TAFUNV
TAF AMD
KUNV 230328Z 2303/2324 VRB05KT 5SM BR BKN030
     FM230700 VRB03KT 4SM BR BKN018
     FM230900 VRB03KT 1/2SM FG BKN002
     FM231300 13006KT 5SM BR BKN025
     FM231500 15006KT P6SM VCSH BKN035=



000
FTUS41 KCTP 230328 AAB
TAFMDT
TAF AMD
KMDT 230328Z 2303/2324 13008KT P6SM VCSH BKN025
     FM230700 12004KT 5SM BR BKN015
     FM231000 VRB03KT 3SM BR BKN009
     FM231300 12006KT 5SM BR BKN025
     FM231900 16006KT P6SM VCSH BKN035=



000
FTUS41 KCTP 230231 AAA
TAFJST
TAF AMD
KJST 230231Z 2303/2324 15005KT 4SM -SHRA BR SCT015 BKN060
     FM230500 VRB04KT 3SM BR SCT010
     FM230700 VRB03KT 1/2SM FG BKN002
     FM231300 VRB05KT 5SM BR BKN025
     FM231600 16006KT P6SM VCSH BKN035=



000
FTUS41 KCTP 230231 AAA
TAFJST
TAF AMD
KJST 230231Z 2303/2324 15005KT 4SM -SHRA BR SCT015 BKN060
     FM230500 VRB04KT 3SM BR SCT010
     FM230700 VRB03KT 1/2SM FG BKN002
     FM231300 VRB05KT 5SM BR BKN025
     FM231600 16006KT P6SM VCSH BKN035=



000
FTUS41 KCTP 230229 AAC
TAFIPT
TAF AMD
KIPT 230229Z 2302/2324 10007KT P6SM VCSH BKN015
     FM230500 VRB04KT 4SM BR SCT004 BKN025
     FM230900 VRB03KT 1/2SM FG BKN002
     FM231300 12006KT 5SM BR BKN025
     FM231500 15006KT P6SM VCSH BKN035=



000
FTUS41 KCTP 230229 AAC
TAFIPT
TAF AMD
KIPT 230229Z 2302/2324 10007KT P6SM VCSH BKN015
     FM230500 VRB04KT 4SM BR SCT004 BKN025
     FM230900 VRB03KT 1/2SM FG BKN002
     FM231300 12006KT 5SM BR BKN025
     FM231500 15006KT P6SM VCSH BKN035=



000
FTUS41 KCTP 230055 AAA
TAFMDT
TAF AMD
KMDT 230055Z 2301/2324 13008KT P6SM VCSH BKN025
     FM230600 12004KT 5SM BR BKN015
     FM231000 VRB03KT 3SM BR BKN009
     FM231300 12006KT 5SM BR BKN025
     FM231900 16006KT P6SM VCSH BKN035=



000
FTUS41 KCTP 230035 AAB
TAFIPT
TAF AMD
KIPT 230035Z 2301/2324 10007KT P6SM VCSH BKN014
     FM230500 VRB04KT 4SM BR SCT004 BKN025
     FM230900 VRB03KT 1/2SM FG BKN002
     FM231300 12006KT 5SM BR BKN025
     FM231500 15006KT P6SM VCSH BKN035=



000
FTUS41 KCTP 230035 AAB
TAFIPT
TAF AMD
KIPT 230035Z 2301/2324 10007KT P6SM VCSH BKN014
     FM230500 VRB04KT 4SM BR SCT004 BKN025
     FM230900 VRB03KT 1/2SM FG BKN002
     FM231300 12006KT 5SM BR BKN025
     FM231500 15006KT P6SM VCSH BKN035=



000
FTUS41 KCTP 230002 AAA
TAFIPT
TAF AMD
KIPT 230002Z 2300/2324 10007KT P6SM VCSH BKN015
     FM230500 VRB04KT 4SM BR SCT004 BKN025
     FM230900 VRB03KT 1/2SM FG BKN002
     FM231300 12006KT 5SM BR BKN025
     FM231500 15006KT P6SM VCSH BKN035=



000
FTUS41 KCTP 230002 AAA
TAFIPT
TAF AMD
KIPT 230002Z 2300/2324 10007KT P6SM VCSH BKN015
     FM230500 VRB04KT 4SM BR SCT004 BKN025
     FM230900 VRB03KT 1/2SM FG BKN002
     FM231300 12006KT 5SM BR BKN025
     FM231500 15006KT P6SM VCSH BKN035=



000
FTUS41 KCTP 222333
TAFMDT
TAF
KMDT 222333Z 2300/2324 13008KT P6SM BKN025
     FM230600 12004KT 5SM BR BKN015
     FM231000 VRB03KT 3SM BR BKN009
     FM231300 12006KT 5SM BR BKN025
     FM231900 16006KT P6SM VCSH BKN035=



000
FTUS41 KCTP 222333
TAFJST
TAF
KJST 222333Z 2300/2324 15005KT P6SM VCSH SCT015 BKN060
     FM230400 VRB04KT 5SM BR SCT010
     FM230700 VRB03KT 1/2SM FG BKN002
     FM231300 VRB05KT 5SM BR BKN025
     FM231600 16006KT P6SM VCSH BKN035=



000
FTUS41 KCTP 222333
TAFBFD
TAF
KBFD 222333Z 2300/2324 35007KT P6SM VCSH SCT025
     FM230300 VRB03KT 4SM BR SKC
     FM230500 VRB03KT 1/2SM FG BKN002
     FM231300 VRB05KT 5SM BR BKN025
     FM231600 12006KT P6SM VCSH BKN035=



000
FTUS41 KCTP 222333
TAFIPT
TAF
KIPT 222333Z 2300/2324 10007KT P6SM VCSH SCT025 BKN100
     FM230500 VRB04KT 4SM BR SCT004 BKN025
     FM230900 VRB03KT 1/2SM FG BKN002
     FM231300 12006KT 5SM BR BKN025
     FM231500 15006KT P6SM VCSH BKN035=



000
FTUS41 KCTP 222333
TAFUNV
TAF
KUNV 222333Z 2300/2324 VRB05KT P6SM VCSH SCT030 BKN100
     FM230500 VRB03KT 4SM BR BKN018
     FM230900 VRB03KT 1/2SM FG BKN002
     FM231300 13006KT 5SM BR BKN025
     FM231500 15006KT P6SM VCSH BKN035=



000
FTUS41 KCTP 222333
TAFAOO
TAF
KAOO 222333Z 2300/2324 16005KT 5SM BR SCT025
     FM230700 VRB04KT 2SM BR BKN015
     FM230900 VRB03KT 1/2SM FG BKN002
     FM231300 VRB05KT 5SM BR BKN025
     FM231600 15006KT P6SM VCSH BKN035=



000
FTUS41 KCTP 222333
TAFMDT
TAF
KMDT 222333Z 2300/2324 13008KT P6SM BKN025
     FM230600 12004KT 5SM BR BKN015
     FM231000 VRB03KT 3SM BR BKN009
     FM231300 12006KT 5SM BR BKN025
     FM231900 16006KT P6SM VCSH BKN035=



000
FTUS41 KCTP 222333
TAFAOO
TAF
KAOO 222333Z 2300/2324 16005KT 5SM BR SCT025
     FM230700 VRB04KT 2SM BR BKN015
     FM230900 VRB03KT 1/2SM FG BKN002
     FM231300 VRB05KT 5SM BR BKN025
     FM231600 15006KT P6SM VCSH BKN035=



000
FTUS41 KCTP 222333
TAFIPT
TAF
KIPT 222333Z 2300/2324 10007KT P6SM VCSH SCT025 BKN100
     FM230500 VRB04KT 4SM BR SCT004 BKN025
     FM230900 VRB03KT 1/2SM FG BKN002
     FM231300 12006KT 5SM BR BKN025
     FM231500 15006KT P6SM VCSH BKN035=



000
FTUS41 KCTP 222333
TAFJST
TAF
KJST 222333Z 2300/2324 15005KT P6SM VCSH SCT015 BKN060
     FM230400 VRB04KT 5SM BR SCT010
     FM230700 VRB03KT 1/2SM FG BKN002
     FM231300 VRB05KT 5SM BR BKN025
     FM231600 16006KT P6SM VCSH BKN035=



000
FTUS41 KCTP 222333
TAFUNV
TAF
KUNV 222333Z 2300/2324 VRB05KT P6SM VCSH SCT030 BKN100
     FM230500 VRB03KT 4SM BR BKN018
     FM230900 VRB03KT 1/2SM FG BKN002
     FM231300 13006KT 5SM BR BKN025
     FM231500 15006KT P6SM VCSH BKN035=



000
FTUS41 KCTP 222333
TAFBFD
TAF
KBFD 222333Z 2300/2324 35007KT P6SM VCSH SCT025
     FM230300 VRB03KT 4SM BR SKC
     FM230500 VRB03KT 1/2SM FG BKN002
     FM231300 VRB05KT 5SM BR BKN025
     FM231600 12006KT P6SM VCSH BKN035=



000
FTUS41 KCTP 222139 AAD
TAFJST
TAF AMD
KJST 222139Z 2222/2318 VRB05KT P6SM VCTS SCT009 BKN015 OVC060CB
     FM222230 21005KT P6SM SCT025
     FM230000 VRB04KT 5SM BR SCT020
     FM230600 15003KT 2SM BR OVC010
      TEMPO 2308/2311 10002KT 1/2SM FG OVC001
     FM231200 11003KT 1 1/2SM BR OVC001
     FM231300 10003KT 2SM BR OVC003=



000
FTUS41 KCTP 222139 AAD
TAFJST
TAF AMD
KJST 222139Z 2222/2318 VRB05KT P6SM VCTS SCT009 BKN015 OVC060CB
     FM222230 21005KT P6SM SCT025
     FM230000 VRB04KT 5SM BR SCT020
     FM230600 15003KT 2SM BR OVC010
      TEMPO 2308/2311 10002KT 1/2SM FG OVC001
     FM231200 11003KT 1 1/2SM BR OVC001
     FM231300 10003KT 2SM BR OVC003=



000
FTUS41 KCTP 222103 AAD
TAFMDT
TAF AMD
KMDT 222103Z 2221/2318 15006KT P6SM SCT035
     FM230200 11004KT P6SM OVC025
     FM230600 10004KT 5SM BR OVC015
     FM231000 10003KT 4SM BR OVC007
     FM231400 10005KT 4SM HZ BR OVC015
     FM231600 10006KT P6SM OVC015=



000
FTUS41 KCTP 222103 AAD
TAFMDT
TAF AMD
KMDT 222103Z 2221/2318 15006KT P6SM SCT035
     FM230200 11004KT P6SM OVC025
     FM230600 10004KT 5SM BR OVC015
     FM231000 10003KT 4SM BR OVC007
     FM231400 10005KT 4SM HZ BR OVC015
     FM231600 10006KT P6SM OVC015=



000
FTUS41 KCTP 222100 AAC
TAFJST
TAF AMD
KJST 222100Z 2221/2318 VRB05KT P6SM VCTS SCT015 BKN025 OVC060CB
     FM222200 21005KT P6SM SCT025
     FM230000 VRB04KT 5SM BR SCT020
     FM230600 15003KT 2SM BR OVC010
      TEMPO 2308/2311 10002KT 1/2SM FG OVC001
     FM231200 11003KT 1 1/2SM BR OVC001
     FM231300 10003KT 2SM BR OVC003=



000
FTUS41 KCTP 222100 AAC
TAFJST
TAF AMD
KJST 222100Z 2221/2318 VRB05KT P6SM VCTS SCT015 BKN025 OVC060CB
     FM222200 21005KT P6SM SCT025
     FM230000 VRB04KT 5SM BR SCT020
     FM230600 15003KT 2SM BR OVC010
      TEMPO 2308/2311 10002KT 1/2SM FG OVC001
     FM231200 11003KT 1 1/2SM BR OVC001
     FM231300 10003KT 2SM BR OVC003=



000
FTUS41 KCTP 222056 AAD
TAFUNV
TAF AMD
KUNV 222056Z 2221/2318 23008KT P6SM SCT035
     FM230600 11003KT 5SM BR OVC015
     FM230800 11003KT 2SM BR OVC010
      TEMPO 2308/2311 10002KT 1/4SM FG OVC001
     FM231200 11003KT 1 1/2SM BR OVC001
     FM231300 10003KT 2SM BR OVC003=



000
FTUS41 KCTP 222056 AAD
TAFUNV
TAF AMD
KUNV 222056Z 2221/2318 23008KT P6SM SCT035
     FM230600 11003KT 5SM BR OVC015
     FM230800 11003KT 2SM BR OVC010
      TEMPO 2308/2311 10002KT 1/4SM FG OVC001
     FM231200 11003KT 1 1/2SM BR OVC001
     FM231300 10003KT 2SM BR OVC003=



000
FTUS41 KCTP 222053 AAC
TAFAOO
TAF AMD
KAOO 222053Z 2221/2318 18005KT 3SM +SHRA BR SCT025 OVC035
      TEMPO 2221/2222 2SM +TSRA BR OVC030CB
     FM222300 VRB04KT P6SM SCT040
     FM230600 12003KT 5SM BR OVC015
     FM230800 11003KT 2SM BR OVC010
      TEMPO 2308/2311 10002KT 1/4SM FG OVC001
     FM231200 11003KT 1 1/2SM BR OVC001
     FM231300 10003KT 2SM BR OVC003=



000
FTUS41 KCTP 222053 AAC
TAFAOO
TAF AMD
KAOO 222053Z 2221/2318 18005KT 3SM +SHRA BR SCT025 OVC035
      TEMPO 2221/2222 2SM +TSRA BR OVC030CB
     FM222300 VRB04KT P6SM SCT040
     FM230600 12003KT 5SM BR OVC015
     FM230800 11003KT 2SM BR OVC010
      TEMPO 2308/2311 10002KT 1/4SM FG OVC001
     FM231200 11003KT 1 1/2SM BR OVC001
     FM231300 10003KT 2SM BR OVC003=



000
FTUS41 KCTP 222051 AAD
TAFIPT
TAF AMD
KIPT 222051Z 2221/2318 19008G15KT P6SM TSRA BKN040CB
      TEMPO 2221/2223 30020G36KT 1SM +TSRA BR OVC025CB
     FM222300 11004KT P6SM VCSH BKN035
     FM230600 07003KT 4SM BR OVC025
      TEMPO 2308/2311 10002KT 2SM BR OVC015
     FM231300 10003KT 4SM BR OVC003=



000
FTUS41 KCTP 222000 AAC
TAFMDT
TAF AMD
KMDT 222000Z 2220/2318 14003KT P6SM BKN021 OVC050
     FM222030 15003KT P6SM VCSH BKN045
     FM230200 11004KT P6SM OVC025
     FM230600 10004KT 5SM BR OVC015
     FM231000 10003KT 4SM BR OVC007
     FM231400 10005KT 4SM HZ BR OVC015
     FM231600 10006KT P6SM OVC015=



000
FTUS41 KCTP 222000 AAC
TAFMDT
TAF AMD
KMDT 222000Z 2220/2318 14003KT P6SM BKN021 OVC050
     FM222030 15003KT P6SM VCSH BKN045
     FM230200 11004KT P6SM OVC025
     FM230600 10004KT 5SM BR OVC015
     FM231000 10003KT 4SM BR OVC007
     FM231400 10005KT 4SM HZ BR OVC015
     FM231600 10006KT P6SM OVC015=



000
FTUS41 KCTP 221954 AAC
TAFIPT
TAF AMD
KIPT 221954Z 2220/2318 13007KT P6SM VCSH BKN035
     FM222100 VRB05KT P6SM VCTS BKN035CB
     FM230100 11004KT P6SM VCSH BKN035
     FM230600 07003KT 4SM BR OVC025
      TEMPO 2308/2311 10002KT 2SM BR OVC015
     FM231300 10003KT 4SM BR OVC003=



000
FTUS41 KCTP 221954 AAC
TAFIPT
TAF AMD
KIPT 221954Z 2220/2318 13007KT P6SM VCSH BKN035
     FM222100 VRB05KT P6SM VCTS BKN035CB
     FM230100 11004KT P6SM VCSH BKN035
     FM230600 07003KT 4SM BR OVC025
      TEMPO 2308/2311 10002KT 2SM BR OVC015
     FM231300 10003KT 4SM BR OVC003=



000
FTUS41 KCTP 221951 AAC
TAFUNV
TAF AMD
KUNV 221951Z 2220/2318 25006KT P6SM VCSH BKN021 OVC035
     FM222100 VRB02KT P6SM VCSH BKN035
     FM230600 11003KT 5SM BR OVC015
     FM230800 11003KT 2SM BR OVC010
      TEMPO 2308/2311 10002KT 1/4SM FG OVC001
     FM231200 11003KT 1 1/2SM BR OVC001
     FM231300 10003KT 2SM BR OVC003=



000
FTUS41 KCTP 221951 AAC
TAFUNV
TAF AMD
KUNV 221951Z 2220/2318 25006KT P6SM VCSH BKN021 OVC035
     FM222100 VRB02KT P6SM VCSH BKN035
     FM230600 11003KT 5SM BR OVC015
     FM230800 11003KT 2SM BR OVC010
      TEMPO 2308/2311 10002KT 1/4SM FG OVC001
     FM231200 11003KT 1 1/2SM BR OVC001
     FM231300 10003KT 2SM BR OVC003=



000
FTUS41 KCTP 221850 AAB
TAFJST
TAF AMD
KJST 221850Z 2219/2318 36004KT 1SM +TSRA BR FEW018 BKN035CB OVC040
     FM221930 36004KT P6SM VCTS FEW018 BKN035CB OVC040
     FM230000 VRB04KT 5SM BR SCT035
     FM230600 15003KT 2SM BR OVC010
      TEMPO 2308/2311 10002KT 1/2SM FG OVC001
     FM231200 11003KT 1 1/2SM BR OVC001
     FM231300 10003KT 2SM BR OVC003=



000
FTUS41 KCTP 221850 AAB
TAFUNV
TAF AMD
KUNV 221850Z 2219/2318 25006KT 6SM BR VCTS BKN011 BKN021 OVC035CB
     FM230000 VRB02KT 6SM BR SCT040
     FM230600 11003KT 5SM BR OVC015
     FM230800 11003KT 2SM BR OVC010
      TEMPO 2308/2311 10002KT 1/4SM FG OVC001
     FM231200 11003KT 1 1/2SM BR OVC001
     FM231300 10003KT 2SM BR OVC003=



000
FTUS41 KCTP 221850 AAB
TAFJST
TAF AMD
KJST 221850Z 2219/2318 36004KT 1SM +TSRA BR FEW018 BKN035CB OVC040
     FM221930 36004KT P6SM VCTS FEW018 BKN035CB OVC040
     FM230000 VRB04KT 5SM BR SCT035
     FM230600 15003KT 2SM BR OVC010
      TEMPO 2308/2311 10002KT 1/2SM FG OVC001
     FM231200 11003KT 1 1/2SM BR OVC001
     FM231300 10003KT 2SM BR OVC003=



000
FTUS41 KCTP 221850 AAB
TAFMDT
TAF AMD
KMDT 221850Z 2219/2318 14003KT P6SM VCSH BKN021 OVC050
     FM230000 11004KT P6SM OVC025
     FM230600 10004KT 5SM BR OVC015
     FM231000 10003KT 4SM BR OVC007
     FM231400 10005KT 4SM HZ BR OVC015
     FM231600 10006KT P6SM OVC015=



000
FTUS41 KCTP 221850 AAB
TAFUNV
TAF AMD
KUNV 221850Z 2219/2318 25006KT 6SM BR VCTS BKN011 BKN021 OVC035CB
     FM230000 VRB02KT 6SM BR SCT040
     FM230600 11003KT 5SM BR OVC015
     FM230800 11003KT 2SM BR OVC010
      TEMPO 2308/2311 10002KT 1/4SM FG OVC001
     FM231200 11003KT 1 1/2SM BR OVC001
     FM231300 10003KT 2SM BR OVC003=



000
FTUS41 KCTP 221850 AAB
TAFBFD
TAF AMD
KBFD 221850Z 2219/2318 VRB05KT P6SM VCSH SCT025 SCT030
     FM230000 VRB02KT 5SM BR SCT035
     FM230600 11003KT 2SM BR OVC010
      TEMPO 2308/2311 10002KT 1/2SM FG OVC001
     FM231200 11003KT 1 1/2SM BR OVC001
     FM231300 10003KT 2SM BR OVC003=



000
FTUS41 KCTP 221850 AAB
TAFAOO
TAF AMD
KAOO 221850Z 2219/2318 00000KT 6SM BR VCTS OVC035CB
     FM230000 VRB04KT P6SM SCT040
     FM230600 12003KT 5SM BR OVC015
     FM230800 11003KT 2SM BR OVC010
      TEMPO 2308/2311 10002KT 1/4SM FG OVC001
     FM231200 11003KT 1 1/2SM BR OVC001
     FM231300 10003KT 2SM BR OVC003=



000
FTUS41 KCTP 221850 AAB
TAFAOO
TAF AMD
KAOO 221850Z 2219/2318 00000KT 6SM BR VCTS OVC035CB
     FM230000 VRB04KT P6SM SCT040
     FM230600 12003KT 5SM BR OVC015
     FM230800 11003KT 2SM BR OVC010
      TEMPO 2308/2311 10002KT 1/4SM FG OVC001
     FM231200 11003KT 1 1/2SM BR OVC001
     FM231300 10003KT 2SM BR OVC003=



000
FTUS41 KCTP 221850 AAB
TAFMDT
TAF AMD
KMDT 221850Z 2219/2318 14003KT P6SM VCSH BKN021 OVC050
     FM230000 11004KT P6SM OVC025
     FM230600 10004KT 5SM BR OVC015
     FM231000 10003KT 4SM BR OVC007
     FM231400 10005KT 4SM HZ BR OVC015
     FM231600 10006KT P6SM OVC015=



000
FTUS41 KCTP 221850 AAB
TAFIPT
TAF AMD
KIPT 221850Z 2219/2318 13007KT P6SM VCSH SKC
     FM230000 10003KT P6SM OVC025
     FM230600 07003KT 4SM BR OVC025
      TEMPO 2308/2311 10002KT 2SM BR OVC015
     FM231300 10003KT 4SM BR OVC003=



000
FTUS41 KCTP 221850 AAB
TAFIPT
TAF AMD
KIPT 221850Z 2219/2318 13007KT P6SM VCSH SKC
     FM230000 10003KT P6SM OVC025
     FM230600 07003KT 4SM BR OVC025
      TEMPO 2308/2311 10002KT 2SM BR OVC015
     FM231300 10003KT 4SM BR OVC003=



000
FTUS41 KCTP 221850 AAB
TAFBFD
TAF AMD
KBFD 221850Z 2219/2318 VRB05KT P6SM VCSH SCT025 SCT030
     FM230000 VRB02KT 5SM BR SCT035
     FM230600 11003KT 2SM BR OVC010
      TEMPO 2308/2311 10002KT 1/2SM FG OVC001
     FM231200 11003KT 1 1/2SM BR OVC001
     FM231300 10003KT 2SM BR OVC003=



000
FTUS41 KCTP 221754 RRA
TAFAOO
TAF
KAOO 221754Z 2218/2318 00000KT 5SM BR VCTS FEW003 OVC040CB
     FM230000 VRB04KT P6SM SCT040
     FM230600 12003KT 5SM BR OVC015
     FM230800 11003KT 2SM BR OVC010
      TEMPO 2308/2311 10002KT 1/4SM FG OVC001
     FM231200 11003KT 1 1/2SM BR OVC001
     FM231300 10003KT 2SM BR OVC003=



000
FTUS41 KCTP 221754 RRA
TAFUNV
TAF
KUNV 221754Z 2218/2318 24006KT 5SM -RA BR VCTS SCT014 BKN035CB
      OVC080
     FM230000 VRB02KT 6SM BR SCT040
     FM230600 11003KT 5SM BR OVC015
     FM230800 11003KT 2SM BR OVC010
      TEMPO 2308/2311 10002KT 1/4SM FG OVC001
     FM231200 11003KT 1 1/2SM BR OVC001
     FM231300 10003KT 2SM BR OVC003=



000
FTUS41 KCTP 221754 RRA
TAFMDT
TAF
KMDT 221754Z 2218/2318 23003KT P6SM VCSH BKN021 OVC050
     FM230000 11004KT P6SM OVC025
     FM230600 10004KT 5SM BR OVC015
     FM231000 10003KT 4SM BR OVC007
     FM231400 10005KT 4SM HZ BR OVC015
     FM231600 10006KT P6SM OVC015=



000
FTUS41 KCTP 221754 RRA
TAFAOO
TAF
KAOO 221754Z 2218/2318 00000KT 5SM BR VCTS FEW003 OVC040CB
     FM230000 VRB04KT P6SM SCT040
     FM230600 12003KT 5SM BR OVC015
     FM230800 11003KT 2SM BR OVC010
      TEMPO 2308/2311 10002KT 1/4SM FG OVC001
     FM231200 11003KT 1 1/2SM BR OVC001
     FM231300 10003KT 2SM BR OVC003=



000
FTUS41 KCTP 221754 RRA
TAFBFD
TAF
KBFD 221754Z 2218/2318 20008KT P6SM VCSH FEW020 SCT028 BKN035
     FM230000 VRB02KT 5SM BR SCT035
     FM230600 11003KT 2SM BR OVC010
      TEMPO 2308/2311 10002KT 1/2SM FG OVC001
     FM231200 11003KT 1 1/2SM BR OVC001
     FM231300 10003KT 2SM BR OVC003=



000
FTUS41 KCTP 221754 RRA
TAFBFD
TAF
KBFD 221754Z 2218/2318 20008KT P6SM VCSH FEW020 SCT028 BKN035
     FM230000 VRB02KT 5SM BR SCT035
     FM230600 11003KT 2SM BR OVC010
      TEMPO 2308/2311 10002KT 1/2SM FG OVC001
     FM231200 11003KT 1 1/2SM BR OVC001
     FM231300 10003KT 2SM BR OVC003=



000
FTUS41 KCTP 221754 RRA
TAFUNV
TAF
KUNV 221754Z 2218/2318 24006KT 5SM -RA BR VCTS SCT014 BKN035CB
      OVC080
     FM230000 VRB02KT 6SM BR SCT040
     FM230600 11003KT 5SM BR OVC015
     FM230800 11003KT 2SM BR OVC010
      TEMPO 2308/2311 10002KT 1/4SM FG OVC001
     FM231200 11003KT 1 1/2SM BR OVC001
     FM231300 10003KT 2SM BR OVC003=



000
FTUS41 KCTP 221754 RRA
TAFIPT
TAF
KIPT 221754Z 2218/2318 00000KT P6SM VCSH FEW035 BKN100
     FM230000 10003KT P6SM OVC025
     FM230600 07003KT 4SM BR OVC025
      TEMPO 2308/2311 10002KT 2SM BR OVC015
     FM231300 10003KT 4SM BR OVC003=



000
FTUS41 KCTP 221754 RRA
TAFMDT
TAF
KMDT 221754Z 2218/2318 23003KT P6SM VCSH BKN021 OVC050
     FM230000 11004KT P6SM OVC025
     FM230600 10004KT 5SM BR OVC015
     FM231000 10003KT 4SM BR OVC007
     FM231400 10005KT 4SM HZ BR OVC015
     FM231600 10006KT P6SM OVC015=



000
FTUS41 KCTP 221754 RRA
TAFJST
TAF
KJST 221754Z 2218/2318 00000KT P6SM VCTS FEW018 OVC035CB
     FM230000 VRB04KT 5SM BR SCT035
     FM230600 15003KT 2SM BR OVC010
      TEMPO 2308/2311 10002KT 1/2SM FG OVC001
     FM231200 11003KT 1 1/2SM BR OVC001
     FM231300 10003KT 2SM BR OVC003=



000
FTUS41 KCTP 221754 RRA
TAFIPT
TAF
KIPT 221754Z 2218/2318 00000KT P6SM VCSH FEW035 BKN100
     FM230000 10003KT P6SM OVC025
     FM230600 07003KT 4SM BR OVC025
      TEMPO 2308/2311 10002KT 2SM BR OVC015
     FM231300 10003KT 4SM BR OVC003=



000
FTUS41 KCTP 221754 RRA
TAFJST
TAF
KJST 221754Z 2218/2318 00000KT P6SM VCTS FEW018 OVC035CB
     FM230000 VRB04KT 5SM BR SCT035
     FM230600 15003KT 2SM BR OVC010
      TEMPO 2308/2311 10002KT 1/2SM FG OVC001
     FM231200 11003KT 1 1/2SM BR OVC001
     FM231300 10003KT 2SM BR OVC003=



000
FTUS41 KCTP 221502 AAA
TAFBFD
TAF AMD
KBFD 221502Z 2215/2312 21003KT P6SM BKN017 BKN021 OVC040
     FM221700 28005KT P6SM VCSH BKN040
     FM230000 VRB02KT 5SM BR SCT035
     FM230600 11003KT 2SM BR OVC010=



000
FTUS41 KCTP 221502 AAA
TAFMDT
TAF AMD
KMDT 221502Z 2215/2312 15003KT P6SM OVC011
     FM221600 VRB04KT P6SM SCT040
     FM221800 VRB04KT P6SM VCTS BKN050CB
     FM230000 11004KT P6SM OVC025
     FM230600 10004KT 5SM BR OVC015=



000
FTUS41 KCTP 221502 AAA
TAFAOO
TAF AMD
KAOO 221502Z 2215/2312 32004KT 1 1/2SM +RA BR BKN030 OVC040
     FM221700 25005KT P6SM VCTS BKN050CB
     FM230000 VRB04KT P6SM SCT040
     FM230600 12003KT 5SM BR OVC015=



000
FTUS41 KCTP 221502 AAA
TAFJST
TAF AMD
KJST 221502Z 2215/2312 25003KT 5SM -RA BR FEW007 SCT014 OVC020
     FM221700 27005KT P6SM VCTS BKN040CB
     FM230000 VRB04KT 5SM BR SCT035
     FM230600 15003KT 2SM BR OVC010=



000
FTUS41 KCTP 221502 AAA
TAFJST
TAF AMD
KJST 221502Z 2215/2312 25003KT 5SM -RA BR FEW007 SCT014 OVC020
     FM221700 27005KT P6SM VCTS BKN040CB
     FM230000 VRB04KT 5SM BR SCT035
     FM230600 15003KT 2SM BR OVC010=



000
FTUS41 KCTP 221502 AAA
TAFIPT
TAF AMD
KIPT 221502Z 2215/2312 VRB04KT P6SM OVC028
     FM221700 13003KT P6SM VCTS BKN050CB
     FM230000 10003KT P6SM OVC025
     FM230600 07003KT 4SM BR OVC015=



000
FTUS41 KCTP 221502 AAA
TAFIPT
TAF AMD
KIPT 221502Z 2215/2312 VRB04KT P6SM OVC028
     FM221700 13003KT P6SM VCTS BKN050CB
     FM230000 10003KT P6SM OVC025
     FM230600 07003KT 4SM BR OVC015=



000
FTUS41 KCTP 221502 AAA
TAFMDT
TAF AMD
KMDT 221502Z 2215/2312 15003KT P6SM OVC011
     FM221600 VRB04KT P6SM SCT040
     FM221800 VRB04KT P6SM VCTS BKN050CB
     FM230000 11004KT P6SM OVC025
     FM230600 10004KT 5SM BR OVC015=



000
FTUS41 KCTP 221502 AAA
TAFUNV
TAF AMD
KUNV 221502Z 2215/2312 00000KT P6SM SCT009 OVC045
     FM221700 VRB03KT P6SM VCTS BKN050CB
     FM230000 VRB02KT 6SM BR SCT040
     FM230600 11003KT 5SM BR OVC015=



000
FTUS41 KCTP 221502 AAA
TAFUNV
TAF AMD
KUNV 221502Z 2215/2312 00000KT P6SM SCT009 OVC045
     FM221700 VRB03KT P6SM VCTS BKN050CB
     FM230000 VRB02KT 6SM BR SCT040
     FM230600 11003KT 5SM BR OVC015=



000
FTUS41 KCTP 221502 AAA
TAFBFD
TAF AMD
KBFD 221502Z 2215/2312 21003KT P6SM BKN017 BKN021 OVC040
     FM221700 28005KT P6SM VCSH BKN040
     FM230000 VRB02KT 5SM BR SCT035
     FM230600 11003KT 2SM BR OVC010=



000
FTUS41 KCTP 221502 AAA
TAFAOO
TAF AMD
KAOO 221502Z 2215/2312 32004KT 1 1/2SM +RA BR BKN030 OVC040
     FM221700 25005KT P6SM VCTS BKN050CB
     FM230000 VRB04KT P6SM SCT040
     FM230600 12003KT 5SM BR OVC015=



000
FTUS41 KCTP 221137
TAFUNV
TAF
KUNV 221137Z 2212/2312 00000KT 5SM BR BKN035
     FM221400 VRB02KT P6SM SCT040
     FM221700 VRB03KT P6SM VCTS BKN050CB
     FM230000 VRB02KT 6SM BR SCT040
     FM230600 11003KT 5SM BR OVC015=



000
FTUS41 KCTP 221137
TAFJST
TAF
KJST 221137Z 2212/2312 22004KT 5SM BR BKN005
     FM221400 24005KT P6SM SCT010 BKN025
     FM221700 27005KT P6SM VCTS BKN040CB
     FM230000 VRB04KT 5SM BR SCT035
     FM230600 15003KT 2SM BR OVC010=



000
FTUS41 KCTP 221137
TAFAOO
TAF
KAOO 221137Z 2212/2312 00000KT 3SM BR BKN025
     FM221400 20003KT P6SM SCT035
     FM221700 25005KT P6SM VCTS BKN050CB
     FM230000 VRB04KT P6SM SCT040
     FM230600 12003KT 5SM BR OVC015=



000
FTUS41 KCTP 221137
TAFMDT
TAF
KMDT 221137Z 2212/2312 00000KT 3SM BR BKN007
     FM221400 VRB03KT 6SM BR BKN020
     FM221600 VRB04KT P6SM SCT040
     FM221800 VRB04KT P6SM VCTS BKN050CB
     FM230000 11004KT P6SM OVC025
     FM230600 10004KT 5SM BR OVC015=



000
FTUS41 KCTP 221137
TAFBFD
TAF
KBFD 221137Z 2212/2312 22003KT 3SM BR BKN020
     FM221300 25004KT P6SM SCT030
     FM221700 28005KT P6SM VCSH BKN040
     FM230000 VRB02KT 5SM BR SCT035
     FM230600 11003KT 2SM BR OVC010=



000
FTUS41 KCTP 221137
TAFIPT
TAF
KIPT 221137Z 2212/2312 00000KT 5SM BR BKN003
     FM221400 VRB03KT P6SM SCT010 BKN025
     FM221700 13003KT P6SM VCTS BKN050CB
     FM230000 10003KT P6SM OVC025
     FM230600 07003KT 4SM BR OVC015=



000
FTUS41 KCTP 221137
TAFJST
TAF
KJST 221137Z 2212/2312 22004KT 5SM BR BKN005
     FM221400 24005KT P6SM SCT010 BKN025
     FM221700 27005KT P6SM VCTS BKN040CB
     FM230000 VRB04KT 5SM BR SCT035
     FM230600 15003KT 2SM BR OVC010=



000
FTUS41 KCTP 221137
TAFUNV
TAF
KUNV 221137Z 2212/2312 00000KT 5SM BR BKN035
     FM221400 VRB02KT P6SM SCT040
     FM221700 VRB03KT P6SM VCTS BKN050CB
     FM230000 VRB02KT 6SM BR SCT040
     FM230600 11003KT 5SM BR OVC015=



000
FTUS41 KCTP 221137
TAFMDT
TAF
KMDT 221137Z 2212/2312 00000KT 3SM BR BKN007
     FM221400 VRB03KT 6SM BR BKN020
     FM221600 VRB04KT P6SM SCT040
     FM221800 VRB04KT P6SM VCTS BKN050CB
     FM230000 11004KT P6SM OVC025
     FM230600 10004KT 5SM BR OVC015=



000
FTUS41 KCTP 221137
TAFAOO
TAF
KAOO 221137Z 2212/2312 00000KT 3SM BR BKN025
     FM221400 20003KT P6SM SCT035
     FM221700 25005KT P6SM VCTS BKN050CB
     FM230000 VRB04KT P6SM SCT040
     FM230600 12003KT 5SM BR OVC015=



000
FTUS41 KCTP 221137
TAFBFD
TAF
KBFD 221137Z 2212/2312 22003KT 3SM BR BKN020
     FM221300 25004KT P6SM SCT030
     FM221700 28005KT P6SM VCSH BKN040
     FM230000 VRB02KT 5SM BR SCT035
     FM230600 11003KT 2SM BR OVC010=



000
FTUS41 KCTP 221137
TAFIPT
TAF
KIPT 221137Z 2212/2312 00000KT 5SM BR BKN003
     FM221400 VRB03KT P6SM SCT010 BKN025
     FM221700 13003KT P6SM VCTS BKN050CB
     FM230000 10003KT P6SM OVC025
     FM230600 07003KT 4SM BR OVC015=



000
FTUS41 KCTP 220935 AAC
TAFIPT
TAF AMD
KIPT 220935Z 2210/2306 00000KT 2SM BR BKN003
     FM221500 VRB02KT P6SM BKN025
     FM222000 30005KT P6SM VCTS BKN050CB
     FM230300 09003KT 5SM BR OVC025=



000
FTUS41 KCTP 220935 AAC
TAFMDT
TAF AMD
KMDT 220935Z 2210/2306 00000KT 2SM BR BKN025
     FM221300 VRB03KT 5SM BR BKN025
     FM221600 VRB04KT P6SM SCT040
     FM222000 VRB03KT P6SM VCTS BKN050CB
     FM230300 10003KT P6SM OVC025=



000
FTUS41 KCTP 220935 AAC
TAFUNV
TAF AMD
KUNV 220935Z 2210/2306 00000KT 3SM BR BKN015
     FM221300 25004KT P6SM SCT025
     FM222000 30005KT P6SM VCTS BKN050CB
     FM230300 09003KT 5SM BR OVC025=



000
FTUS41 KCTP 220935 AAE
TAFJST
TAF AMD
KJST 220935Z 2210/2306 24004KT 5SM BR OVC007
     FM221500 25005KT P6SM BKN025
     FM222000 28005KT P6SM VCTS BKN050CB
     FM230300 13004KT P6SM OVC020=



000
FTUS41 KCTP 220935 AAC
TAFAOO
TAF AMD
KAOO 220935Z 2210/2306 VRB03KT 5SM BR BKN015
     FM221300 25004KT P6SM SCT025
     FM222000 30005KT P6SM VCTS BKN050CB
     FM230300 12003KT 5SM BR OVC025=



000
FTUS41 KCTP 220935 AAC
TAFMDT
TAF AMD
KMDT 220935Z 2210/2306 00000KT 2SM BR BKN025
     FM221300 VRB03KT 5SM BR BKN025
     FM221600 VRB04KT P6SM SCT040
     FM222000 VRB03KT P6SM VCTS BKN050CB
     FM230300 10003KT P6SM OVC025=



000
FTUS41 KCTP 220935 AAG
TAFBFD
TAF AMD
KBFD 220935Z 2210/2306 00000KT 5SM BR OVC009
     FM221300 23004KT P6SM SCT010
     FM221600 26005KT P6SM BKN050
     FM222000 29005KT P6SM VCTS BKN050CB
     FM230300 10003KT 3SM BR OVC020=



000
FTUS41 KCTP 220935 AAC
TAFIPT
TAF AMD
KIPT 220935Z 2210/2306 00000KT 2SM BR BKN003
     FM221500 VRB02KT P6SM BKN025
     FM222000 30005KT P6SM VCTS BKN050CB
     FM230300 09003KT 5SM BR OVC025=



000
FTUS41 KCTP 220838 AAB
TAFIPT
TAF AMD
KIPT 220838Z 2209/2306 00000KT 1SM BR BKN004
     FM221500 VRB02KT P6SM BKN025
     FM222000 30005KT P6SM VCTS BKN050CB
     FM230300 09003KT 5SM BR OVC025=



000
FTUS41 KCTP 220838 AAB
TAFIPT
TAF AMD
KIPT 220838Z 2209/2306 00000KT 1SM BR BKN004
     FM221500 VRB02KT P6SM BKN025
     FM222000 30005KT P6SM VCTS BKN050CB
     FM230300 09003KT 5SM BR OVC025=



000
FTUS41 KCTP 220611 RRA
TAFBFD
TAF
KBFD 220611Z 2206/2306 00000KT 2SM BR VCSH OVC002
     FM220900 VRB02KT 1SM BR OVC002
     FM221300 23004KT P6SM SCT010
     FM221600 26005KT P6SM BKN050
     FM222000 29005KT P6SM VCTS BKN050CB
     FM230300 10003KT 3SM BR OVC020=



000
FTUS41 KCTP 220611 RRA
TAFJST
TAF
KJST 220611Z 2206/2306 23004KT P6SM OVC010
     FM220800 24004KT P6SM OVC007
     FM221500 25005KT P6SM BKN025
     FM222000 28005KT P6SM VCTS BKN050CB
     FM230300 13004KT P6SM OVC020=



000
FTUS41 KCTP 220611 RRA
TAFAOO
TAF
KAOO 220611Z 2206/2306 23003KT 5SM BR BKN020
     FM220900 24003KT 2SM BR BKN010
     FM221300 25004KT P6SM SCT025
     FM222000 30005KT P6SM VCTS BKN050CB
     FM230300 12003KT 5SM BR OVC025=



000
FTUS41 KCTP 220611 RRA
TAFMDT
TAF
KMDT 220611Z 2206/2306 34003KT 5SM BR SCT004 BKN015
     FM220900 31003KT 4SM BR BKN007
     FM221300 VRB03KT P6SM BKN020
     FM221600 VRB04KT P6SM SCT040
     FM222000 VRB03KT P6SM VCTS BKN050CB
     FM230300 10003KT P6SM OVC025=



000
FTUS41 KCTP 220611 RRA
TAFUNV
TAF
KUNV 220611Z 2206/2306 23003KT 4SM BR BKN050
     FM220800 24003KT 2SM BR BKN010
     FM221300 25004KT P6SM SCT025
     FM222000 30005KT P6SM VCTS BKN050CB
     FM230300 09003KT 5SM BR OVC025=



000
FTUS41 KCTP 220611 RRA
TAFUNV
TAF
KUNV 220611Z 2206/2306 23003KT 4SM BR BKN050
     FM220800 24003KT 2SM BR BKN010
     FM221300 25004KT P6SM SCT025
     FM222000 30005KT P6SM VCTS BKN050CB
     FM230300 09003KT 5SM BR OVC025=



000
FTUS41 KCTP 220611 RRA
TAFIPT
TAF
KIPT 220611Z 2206/2306 00000KT 5SM BR SCT004 BKN015
     FM221000 00000KT 4SM BR BKN004
     FM221500 VRB02KT P6SM BKN025
     FM222000 30005KT P6SM VCTS BKN050CB
     FM230300 09003KT 5SM BR OVC025=



000
FTUS41 KCTP 220611 RRA
TAFJST
TAF
KJST 220611Z 2206/2306 23004KT P6SM OVC010
     FM220800 24004KT P6SM OVC007
     FM221500 25005KT P6SM BKN025
     FM222000 28005KT P6SM VCTS BKN050CB
     FM230300 13004KT P6SM OVC020=



000
FTUS41 KCTP 220611 RRA
TAFIPT
TAF
KIPT 220611Z 2206/2306 00000KT 5SM BR SCT004 BKN015
     FM221000 00000KT 4SM BR BKN004
     FM221500 VRB02KT P6SM BKN025
     FM222000 30005KT P6SM VCTS BKN050CB
     FM230300 09003KT 5SM BR OVC025=



000
FTUS41 KCTP 220611 RRA
TAFMDT
TAF
KMDT 220611Z 2206/2306 34003KT 5SM BR SCT004 BKN015
     FM220900 31003KT 4SM BR BKN007
     FM221300 VRB03KT P6SM BKN020
     FM221600 VRB04KT P6SM SCT040
     FM222000 VRB03KT P6SM VCTS BKN050CB
     FM230300 10003KT P6SM OVC025=



000
FTUS41 KCTP 220611 RRA
TAFBFD
TAF
KBFD 220611Z 2206/2306 00000KT 2SM BR VCSH OVC002
     FM220900 VRB02KT 1SM BR OVC002
     FM221300 23004KT P6SM SCT010
     FM221600 26005KT P6SM BKN050
     FM222000 29005KT P6SM VCTS BKN050CB
     FM230300 10003KT 3SM BR OVC020=



000
FTUS41 KCTP 220611 RRA
TAFAOO
TAF
KAOO 220611Z 2206/2306 23003KT 5SM BR BKN020
     FM220900 24003KT 2SM BR BKN010
     FM221300 25004KT P6SM SCT025
     FM222000 30005KT P6SM VCTS BKN050CB
     FM230300 12003KT 5SM BR OVC025=



000
FTUS41 KCTP 220338 AAD
TAFJST
TAF AMD
KJST 220338Z 2204/2224 26006KT P6SM BKN010
     FM220500 25004KT 4SM BR BKN009
     FM220900 27004KT 1/2SM FG BKN002
     FM221300 28006KT P6SM BKN025
     FM221500 29007KT P6SM VCSH BKN035=



000
FTUS41 KCTP 220338 AAA
TAFIPT
TAF AMD
KIPT 220338Z 2204/2224 33005KT P6SM VCSH SCT040 BKN100
     FM220500 VRB03KT 3SM BR SCT025
     FM220700 VRB02KT 1/2SM FG BKN002
     FM221300 26005KT P6SM BKN025
     FM221500 27006KT P6SM VCSH BKN035=



000
FTUS41 KCTP 220338 AAF
TAFBFD
TAF AMD
KBFD 220338Z 2204/2224 00000KT 1SM -SHRA BR BKN002
     FM220700 VRB02KT 1/2SM FG BKN002
     FM221300 27006KT P6SM BKN025
     FM221500 28007KT P6SM VCSH BKN035=



000
FTUS41 KCTP 220338 AAA
TAFIPT
TAF AMD
KIPT 220338Z 2204/2224 33005KT P6SM VCSH SCT040 BKN100
     FM220500 VRB03KT 3SM BR SCT025
     FM220700 VRB02KT 1/2SM FG BKN002
     FM221300 26005KT P6SM BKN025
     FM221500 27006KT P6SM VCSH BKN035=



000
FTUS41 KCTP 220338 AAB
TAFMDT
TAF AMD
KMDT 220338Z 2204/2224 VRB03KT P6SM FEW009 SCT100
     FM220700 13004KT 3SM BR SCT009
     FM220900 VRB02KT 1/2SM FG BKN002
     FM221300 26006KT P6SM BKN025
     FM221500 27006KT P6SM VCSH BKN035=



000
FTUS41 KCTP 220338 AAD
TAFJST
TAF AMD
KJST 220338Z 2204/2224 26006KT P6SM BKN010
     FM220500 25004KT 4SM BR BKN009
     FM220900 27004KT 1/2SM FG BKN002
     FM221300 28006KT P6SM BKN025
     FM221500 29007KT P6SM VCSH BKN035=



000
FTUS41 KCTP 220338 AAB
TAFUNV
TAF AMD
KUNV 220338Z 2204/2224 00000KT 4SM BR SCT002
     FM220700 VRB03KT 3SM -SHRA BR BKN018
     FM221000 VRB04KT 1/2SM FG BKN002
     FM221300 27005KT P6SM BKN025
     FM221500 28006KT P6SM VCSH BKN035=



000
FTUS41 KCTP 220338 AAB
TAFAOO
TAF AMD
KAOO 220338Z 2204/2224 24005KT P6SM BKN030
     FM220700 26004KT 3SM BR SCT025
     FM221000 VRB04KT 1/2SM FG BKN002
     FM221300 27005KT P6SM BKN025
     FM221500 28006KT P6SM VCSH BKN035=



000
FTUS41 KCTP 220338 AAF
TAFBFD
TAF AMD
KBFD 220338Z 2204/2224 00000KT 1SM -SHRA BR BKN002
     FM220700 VRB02KT 1/2SM FG BKN002
     FM221300 27006KT P6SM BKN025
     FM221500 28007KT P6SM VCSH BKN035=



000
FTUS41 KCTP 220338 AAB
TAFAOO
TAF AMD
KAOO 220338Z 2204/2224 24005KT P6SM BKN030
     FM220700 26004KT 3SM BR SCT025
     FM221000 VRB04KT 1/2SM FG BKN002
     FM221300 27005KT P6SM BKN025
     FM221500 28006KT P6SM VCSH BKN035=



000
FTUS41 KCTP 220338 AAB
TAFMDT
TAF AMD
KMDT 220338Z 2204/2224 VRB03KT P6SM FEW009 SCT100
     FM220700 13004KT 3SM BR SCT009
     FM220900 VRB02KT 1/2SM FG BKN002
     FM221300 26006KT P6SM BKN025
     FM221500 27006KT P6SM VCSH BKN035=



000
FTUS41 KCTP 220222 AAE
TAFBFD
TAF AMD
KBFD 220222Z 2202/2224 00000KT 1 1/2SM -SHRA BR BKN025
     FM220700 VRB02KT 1/2SM FG BKN002
     FM221300 27006KT P6SM BKN025
     FM221500 28007KT P6SM VCSH BKN035=



000
FTUS41 KCTP 220222 AAE
TAFBFD
TAF AMD
KBFD 220222Z 2202/2224 00000KT 1 1/2SM -SHRA BR BKN025
     FM220700 VRB02KT 1/2SM FG BKN002
     FM221300 27006KT P6SM BKN025
     FM221500 28007KT P6SM VCSH BKN035=



000
FTUS41 KCTP 220222 AAA
TAFMDT
TAF AMD
KMDT 220222Z 2202/2224 15006KT 5SM BR SCT040 BKN100
     FM220700 13004KT 3SM BR SCT025
     FM220900 VRB02KT 1/2SM FG BKN002
     FM221300 26006KT P6SM BKN025
     FM221500 27006KT P6SM VCSH BKN035=



000
FTUS41 KCTP 220222 AAA
TAFMDT
TAF AMD
KMDT 220222Z 2202/2224 15006KT 5SM BR SCT040 BKN100
     FM220700 13004KT 3SM BR SCT025
     FM220900 VRB02KT 1/2SM FG BKN002
     FM221300 26006KT P6SM BKN025
     FM221500 27006KT P6SM VCSH BKN035=



000
FTUS41 KCTP 220211 AAD
TAFBFD
TAF AMD
KBFD 220211Z 2202/2224 00000KT 3SM -SHRA BR BKN025
     FM220700 VRB02KT 1/2SM FG BKN002
     FM221300 27006KT P6SM BKN025
     FM221500 28007KT P6SM VCSH BKN035=



000
FTUS41 KCTP 220211 AAD
TAFBFD
TAF AMD
KBFD 220211Z 2202/2224 00000KT 3SM -SHRA BR BKN025
     FM220700 VRB02KT 1/2SM FG BKN002
     FM221300 27006KT P6SM BKN025
     FM221500 28007KT P6SM VCSH BKN035=



000
FTUS41 KCTP 220210 AAC
TAFJST
TAF AMD
KJST 220210Z 2202/2224 26006KT P6SM BKN014
     FM220500 25004KT 4SM BR BKN012
     FM220900 27004KT 1/2SM FG BKN002
     FM221300 28006KT P6SM BKN025
     FM221500 29007KT P6SM VCSH BKN035=



000
FTUS41 KCTP 220210 AAC
TAFJST
TAF AMD
KJST 220210Z 2202/2224 26006KT P6SM BKN014
     FM220500 25004KT 4SM BR BKN012
     FM220900 27004KT 1/2SM FG BKN002
     FM221300 28006KT P6SM BKN025
     FM221500 29007KT P6SM VCSH BKN035=



000
FTUS41 KCTP 220122 AAA
TAFAOO
TAF AMD
KAOO 220122Z 2201/2224 24005KT P6SM BKN030
     FM220700 26004KT 3SM BR SCT025
     FM221000 VRB04KT 1/2SM FG BKN002
     FM221300 27005KT P6SM BKN025
     FM221500 28006KT P6SM VCSH BKN035=



000
FTUS41 KCTP 220122 AAA
TAFAOO
TAF AMD
KAOO 220122Z 2201/2224 24005KT P6SM BKN030
     FM220700 26004KT 3SM BR SCT025
     FM221000 VRB04KT 1/2SM FG BKN002
     FM221300 27005KT P6SM BKN025
     FM221500 28006KT P6SM VCSH BKN035=



000
FTUS41 KCTP 220104 AAB
TAFJST
TAF AMD
KJST 220104Z 2201/2224 26008KT P6SM SCT014 OVC023
     FM220500 25004KT 4SM BR BKN018
     FM220900 27004KT 1/2SM FG BKN002
     FM221300 28006KT P6SM BKN025
     FM221500 29007KT P6SM VCSH BKN035=



000
FTUS41 KCTP 220104 AAB
TAFJST
TAF AMD
KJST 220104Z 2201/2224 26008KT P6SM SCT014 OVC023
     FM220500 25004KT 4SM BR BKN018
     FM220900 27004KT 1/2SM FG BKN002
     FM221300 28006KT P6SM BKN025
     FM221500 29007KT P6SM VCSH BKN035=



000
FTUS41 KCTP 220100 AAA
TAFUNV
TAF AMD
KUNV 220100Z 2201/2224 00000KT 4SM BR SCT002 BKN030
     FM220800 25005KT 3SM BR SCT025
     FM221000 VRB04KT 1/2SM FG BKN002
     FM221300 27005KT P6SM BKN025
     FM221500 28006KT P6SM VCSH BKN035=



000
FTUS41 KCTP 220100 AAA
TAFUNV
TAF AMD
KUNV 220100Z 2201/2224 00000KT 4SM BR SCT002 BKN030
     FM220800 25005KT 3SM BR SCT025
     FM221000 VRB04KT 1/2SM FG BKN002
     FM221300 27005KT P6SM BKN025
     FM221500 28006KT P6SM VCSH BKN035=



000
FTUS41 KCTP 220059 AAC
TAFBFD
TAF AMD
KBFD 220059Z 2201/2224 00000KT P6SM VCTS FEW018 BKN035 OVC060CB
     FM220700 VRB02KT 1/2SM FG BKN002
     FM221300 27006KT P6SM BKN025
     FM221500 28007KT P6SM VCSH BKN035=



000
FTUS41 KCTP 220034 AAA
TAFJST
TAF AMD
KJST 220034Z 2201/2224 24006KT P6SM BKN018
     FM220500 25004KT 4SM BR BKN018
     FM220900 27004KT 1/2SM FG BKN002
     FM221300 28006KT P6SM BKN025
     FM221500 29007KT P6SM VCSH BKN035=



000
FTUS41 KCTP 220034 AAA
TAFJST
TAF AMD
KJST 220034Z 2201/2224 24006KT P6SM BKN018
     FM220500 25004KT 4SM BR BKN018
     FM220900 27004KT 1/2SM FG BKN002
     FM221300 28006KT P6SM BKN025
     FM221500 29007KT P6SM VCSH BKN035=



000
FTUS41 KCTP 220025 AAB
TAFBFD
TAF AMD
KBFD 220025Z 2200/2224 32004KT 3/4SM +TSRA BR BKN014 BKN040
      BKN060CB
     FM220100 VRB03KT 3SM BR SCT009
     FM220700 VRB02KT 1/2SM FG BKN002
     FM221300 27006KT P6SM BKN025
     FM221500 28007KT P6SM VCSH BKN035=



000
FTUS41 KCTP 220025 AAB
TAFBFD
TAF AMD
KBFD 220025Z 2200/2224 32004KT 3/4SM +TSRA BR BKN014 BKN040
      BKN060CB
     FM220100 VRB03KT 3SM BR SCT009
     FM220700 VRB02KT 1/2SM FG BKN002
     FM221300 27006KT P6SM BKN025
     FM221500 28007KT P6SM VCSH BKN035=



000
FTUS41 KCTP 220007 AAA
TAFBFD
TAF AMD
KBFD 220007Z 2200/2224 00000KT 5SM BR FEW017 SCT040 BKN060
     FM220100 VRB03KT 3SM BR SCT009
     FM220700 VRB02KT 1/2SM FG BKN002
     FM221300 27006KT P6SM BKN025
     FM221500 28007KT P6SM VCSH BKN035=



000
FTUS41 KCTP 220007 AAA
TAFBFD
TAF AMD
KBFD 220007Z 2200/2224 00000KT 5SM BR FEW017 SCT040 BKN060
     FM220100 VRB03KT 3SM BR SCT009
     FM220700 VRB02KT 1/2SM FG BKN002
     FM221300 27006KT P6SM BKN025
     FM221500 28007KT P6SM VCSH BKN035=



000
FTUS41 KCTP 212349
TAFBFD
TAF
KBFD 212349Z 2200/2224 19004KT 3/4SM +TSRA BKN015 OVC025CB
     FM220100 VRB03KT 3SM BR SCT009
     FM220700 VRB02KT 1/2SM FG BKN002
     FM221300 27006KT P6SM BKN025
     FM221500 28007KT P6SM VCSH BKN035=



000
FTUS41 KCTP 212349
TAFIPT
TAF
KIPT 212349Z 2200/2224 VRB04KT P6SM SCT100
     FM220500 VRB03KT 3SM BR SCT025
     FM220700 VRB02KT 1/2SM FG BKN002
     FM221300 26005KT P6SM BKN025
     FM221500 27006KT P6SM VCSH BKN035=



000
FTUS41 KCTP 212349
TAFMDT
TAF
KMDT 212349Z 2200/2224 15006KT P6SM SCT040 BKN100
     FM220700 13004KT 5SM BR SCT025
     FM220900 VRB02KT 1/2SM FG BKN002
     FM221300 26006KT P6SM BKN025
     FM221500 27006KT P6SM VCSH BKN035=



000
FTUS41 KCTP 212349
TAFUNV
TAF
KUNV 212349Z 2200/2224 23006KT P6SM SCT035 BKN100
     FM220800 25005KT 3SM BR SCT025
     FM221000 VRB04KT 1/2SM FG BKN002
     FM221300 27005KT P6SM BKN025
     FM221500 28006KT P6SM VCSH BKN035=



000
FTUS41 KCTP 212349
TAFAOO
TAF
KAOO 212349Z 2200/2224 26007KT P6SM SCT035 BKN100
     FM220700 26004KT 3SM BR SCT025
     FM221000 VRB04KT 1/2SM FG BKN002
     FM221300 27005KT P6SM BKN025
     FM221500 28006KT P6SM VCSH BKN035=



000
FTUS41 KCTP 212349
TAFJST
TAF
KJST 212349Z 2200/2224 24006KT P6SM SCT025
     FM220500 25004KT 4SM BR BKN018
     FM220900 27004KT 1/2SM FG BKN002
     FM221300 28006KT P6SM BKN025
     FM221500 29007KT P6SM VCSH BKN035=



000
FTUS41 KCTP 212349
TAFIPT
TAF
KIPT 212349Z 2200/2224 VRB04KT P6SM SCT100
     FM220500 VRB03KT 3SM BR SCT025
     FM220700 VRB02KT 1/2SM FG BKN002
     FM221300 26005KT P6SM BKN025
     FM221500 27006KT P6SM VCSH BKN035=



000
FTUS41 KCTP 212349
TAFMDT
TAF
KMDT 212349Z 2200/2224 15006KT P6SM SCT040 BKN100
     FM220700 13004KT 5SM BR SCT025
     FM220900 VRB02KT 1/2SM FG BKN002
     FM221300 26006KT P6SM BKN025
     FM221500 27006KT P6SM VCSH BKN035=



000
FTUS41 KCTP 212349
TAFJST
TAF
KJST 212349Z 2200/2224 24006KT P6SM SCT025
     FM220500 25004KT 4SM BR BKN018
     FM220900 27004KT 1/2SM FG BKN002
     FM221300 28006KT P6SM BKN025
     FM221500 29007KT P6SM VCSH BKN035=



000
FTUS41 KCTP 212349
TAFUNV
TAF
KUNV 212349Z 2200/2224 23006KT P6SM SCT035 BKN100
     FM220800 25005KT 3SM BR SCT025
     FM221000 VRB04KT 1/2SM FG BKN002
     FM221300 27005KT P6SM BKN025
     FM221500 28006KT P6SM VCSH BKN035=



000
FTUS41 KCTP 212349
TAFAOO
TAF
KAOO 212349Z 2200/2224 26007KT P6SM SCT035 BKN100
     FM220700 26004KT 3SM BR SCT025
     FM221000 VRB04KT 1/2SM FG BKN002
     FM221300 27005KT P6SM BKN025
     FM221500 28006KT P6SM VCSH BKN035=



000
FTUS41 KCTP 212349
TAFBFD
TAF
KBFD 212349Z 2200/2224 19004KT 3/4SM +TSRA BKN015 OVC025CB
     FM220100 VRB03KT 3SM BR SCT009
     FM220700 VRB02KT 1/2SM FG BKN002
     FM221300 27006KT P6SM BKN025
     FM221500 28007KT P6SM VCSH BKN035=



000
FTUS41 KCTP 212306 AAC
TAFBFD
TAF AMD
KBFD 212306Z 2123/2218 19004KT 4SM -RA VCTS SCT027 BKN050 OVC070CB
      TEMPO 2123/2124 1SM +TSRA BR OVC015CB
     FM220400 00000KT 2SM BR BKN100
      TEMPO 2208/2212 1/2SM FG OVC001
     FM221400 30002KT P6SM OVC015=



000
FTUS41 KCTP 212306 AAC
TAFBFD
TAF AMD
KBFD 212306Z 2123/2218 19004KT 4SM -RA VCTS SCT027 BKN050 OVC070CB
      TEMPO 2123/2124 1SM +TSRA BR OVC015CB
     FM220400 00000KT 2SM BR BKN100
      TEMPO 2208/2212 1/2SM FG OVC001
     FM221400 30002KT P6SM OVC015=



000
FTUS41 KCTP 212251 AAD
TAFJST
TAF AMD
KJST 212251Z 2123/2218 25009KT P6SM FEW019 SCT025 BKN030
     FM220400 26004KT 4SM BR OVC050
     FM220800 27004KT 2SM BR OVC003
      TEMPO 2211/2213 1/2SM FG OVC001
     FM221500 27004KT 4SM HZ OVC007=



000
FTUS41 KCTP 212232 AAB
TAFBFD
TAF AMD
KBFD 212232Z 2123/2218 19004KT 4SM -RA VCTS SCT027 BKN050 OVC070CB
     FM220400 00000KT 2SM BR BKN100
      TEMPO 2208/2212 1/2SM FG OVC001
     FM221400 30002KT P6SM OVC015=



000
FTUS41 KCTP 212232 AAB
TAFBFD
TAF AMD
KBFD 212232Z 2123/2218 19004KT 4SM -RA VCTS SCT027 BKN050 OVC070CB
     FM220400 00000KT 2SM BR BKN100
      TEMPO 2208/2212 1/2SM FG OVC001
     FM221400 30002KT P6SM OVC015=



000
FTUS41 KCTP 212231 AAC
TAFJST
TAF AMD
KJST 212231Z 2123/2218 25009KT P6SM FEW019 SCT025 BKN030
     FM220400 26004KT 4SM BR OVC050
     FM220800 27004KT 2SM BR OVC003
      TEMPO 2211/2213 1/2SM FG OVC001
     FM221500 27004KT 4SM HZ OVC007=



000
FTUS41 KCTP 212231 AAC
TAFJST
TAF AMD
KJST 212231Z 2123/2218 25009KT P6SM FEW019 SCT025 BKN030
     FM220400 26004KT 4SM BR OVC050
     FM220800 27004KT 2SM BR OVC003
      TEMPO 2211/2213 1/2SM FG OVC001
     FM221500 27004KT 4SM HZ OVC007=



000
FTUS41 KCTP 212231 AAC
TAFIPT
TAF AMD
KIPT 212231Z 2123/2218 19006KT P6SM SKC
      TEMPO 2123/2124 30018G28KT 3/4SM +TSRA BR OVC018CB
     FM220100 VRB03KT P6SM BKN100
     FM220400 27004KT 2SM BR OVC003
      TEMPO 2211/2213 1/2SM FG OVC001
     FM221500 27004KT 4SM HZ OVC007=



000
FTUS41 KCTP 212231 AAC
TAFIPT
TAF AMD
KIPT 212231Z 2123/2218 19006KT P6SM SKC
      TEMPO 2123/2124 30018G28KT 3/4SM +TSRA BR OVC018CB
     FM220100 VRB03KT P6SM BKN100
     FM220400 27004KT 2SM BR OVC003
      TEMPO 2211/2213 1/2SM FG OVC001
     FM221500 27004KT 4SM HZ OVC007=



000
FTUS41 KCTP 212209 AAB
TAFIPT
TAF AMD
KIPT 212209Z 2122/2218 19007KT P6SM -SHRA SCT040
      TEMPO 2122/2124 30018G28KT 3/4SM +TSRA BR OVC018CB
     FM220100 VRB03KT P6SM BKN100
     FM220400 27004KT 2SM BR OVC003
      TEMPO 2211/2213 1/2SM FG OVC001
     FM221500 27004KT 4SM HZ OVC007=



000
FTUS41 KCTP 212209 AAB
TAFIPT
TAF AMD
KIPT 212209Z 2122/2218 19007KT P6SM -SHRA SCT040
      TEMPO 2122/2124 30018G28KT 3/4SM +TSRA BR OVC018CB
     FM220100 VRB03KT P6SM BKN100
     FM220400 27004KT 2SM BR OVC003
      TEMPO 2211/2213 1/2SM FG OVC001
     FM221500 27004KT 4SM HZ OVC007=



000
FTUS41 KCTP 212155 AAB
TAFJST
TAF AMD
KJST 212155Z 2122/2218 26011KT P6SM BKN025
     FM212300 26005KT P6SM BKN100
     FM220400 26004KT 4SM BR OVC050
     FM220800 27004KT 2SM BR OVC003
      TEMPO 2211/2213 1/2SM FG OVC001
     FM221500 27004KT 4SM HZ OVC007=



000
FTUS41 KCTP 212155 AAB
TAFJST
TAF AMD
KJST 212155Z 2122/2218 26011KT P6SM BKN025
     FM212300 26005KT P6SM BKN100
     FM220400 26004KT 4SM BR OVC050
     FM220800 27004KT 2SM BR OVC003
      TEMPO 2211/2213 1/2SM FG OVC001
     FM221500 27004KT 4SM HZ OVC007=



000
FTUS41 KCTP 212129 AAD
TAFUNV
TAF AMD
KUNV 212129Z 2121/2218 23006KT P6SM VCSH SCT018 BKN035
     FM220100 24005KT P6SM BKN100
     FM220700 27004KT 2SM BR OVC003
      TEMPO 2210/2213 1/2SM FG OVC001
     FM221500 27004KT 4SM HZ OVC007=



000
FTUS41 KCTP 212129 AAA
TAFJST
TAF AMD
KJST 212129Z 2121/2218 26011KT P6SM SCT025 BKN050
     FM212300 26005KT P6SM BKN100
     FM220400 26004KT 4SM BR OVC050
     FM220800 27004KT 2SM BR OVC003
      TEMPO 2211/2213 1/2SM FG OVC001
     FM221500 27004KT 4SM HZ OVC007=



000
FTUS41 KCTP 212129 AAA
TAFIPT
TAF AMD
KIPT 212129Z 2121/2218 19007KT P6SM -SHRA SCT040
     FM220100 VRB03KT P6SM BKN100
     FM220400 27004KT 2SM BR OVC003
      TEMPO 2211/2213 1/2SM FG OVC001
     FM221500 27004KT 4SM HZ OVC007=



000
FTUS41 KCTP 212129 AAA
TAFBFD
TAF AMD
KBFD 212129Z 2121/2218 24007KT P6SM VCTS BKN040CB
     FM212300 VRB03KT P6SM BKN100
     FM220400 00000KT 2SM BR BKN100
      TEMPO 2208/2212 1/2SM FG OVC001
     FM221400 30002KT P6SM OVC015=



000
FTUS41 KCTP 212129 AAA
TAFJST
TAF AMD
KJST 212129Z 2121/2218 26011KT P6SM SCT025 BKN050
     FM212300 26005KT P6SM BKN100
     FM220400 26004KT 4SM BR OVC050
     FM220800 27004KT 2SM BR OVC003
      TEMPO 2211/2213 1/2SM FG OVC001
     FM221500 27004KT 4SM HZ OVC007=



000
FTUS41 KCTP 212129 AAA
TAFAOO
TAF AMD
KAOO 212129Z 2121/2218 23008KT P6SM VCSH BKN040
     FM212300 VRB04KT P6SM BKN100
     FM220600 27004KT 2SM BR OVC003
      TEMPO 2210/2213 1/2SM FG OVC001
     FM221500 27004KT 4SM HZ OVC007=



000
FTUS41 KCTP 212129 AAA
TAFBFD
TAF AMD
KBFD 212129Z 2121/2218 24007KT P6SM VCTS BKN040CB
     FM212300 VRB03KT P6SM BKN100
     FM220400 00000KT 2SM BR BKN100
      TEMPO 2208/2212 1/2SM FG OVC001
     FM221400 30002KT P6SM OVC015=



000
FTUS41 KCTP 212129 AAD
TAFUNV
TAF AMD
KUNV 212129Z 2121/2218 23006KT P6SM VCSH SCT018 BKN035
     FM220100 24005KT P6SM BKN100
     FM220700 27004KT 2SM BR OVC003
      TEMPO 2210/2213 1/2SM FG OVC001
     FM221500 27004KT 4SM HZ OVC007=



000
FTUS41 KCTP 212129 AAA
TAFMDT
TAF AMD
KMDT 212129Z 2121/2218 17007KT P6SM VCTS SCT040 BKN100CB
     FM220000 VRB04KT P6SM BKN100
     FM220600 32002KT 4SM BR BKN250
      TEMPO 2211/2213 1SM BR OVC025
     FM221500 VRB03KT 6SM HZ BKN050=



000
FTUS41 KCTP 212129 AAA
TAFIPT
TAF AMD
KIPT 212129Z 2121/2218 19007KT P6SM -SHRA SCT040
     FM220100 VRB03KT P6SM BKN100
     FM220400 27004KT 2SM BR OVC003
      TEMPO 2211/2213 1/2SM FG OVC001
     FM221500 27004KT 4SM HZ OVC007=



000
FTUS41 KCTP 212129 AAA
TAFAOO
TAF AMD
KAOO 212129Z 2121/2218 23008KT P6SM VCSH BKN040
     FM212300 VRB04KT P6SM BKN100
     FM220600 27004KT 2SM BR OVC003
      TEMPO 2210/2213 1/2SM FG OVC001
     FM221500 27004KT 4SM HZ OVC007=



000
FTUS41 KCTP 212129 AAA
TAFMDT
TAF AMD
KMDT 212129Z 2121/2218 17007KT P6SM VCTS SCT040 BKN100CB
     FM220000 VRB04KT P6SM BKN100
     FM220600 32002KT 4SM BR BKN250
      TEMPO 2211/2213 1SM BR OVC025
     FM221500 VRB03KT 6SM HZ BKN050=



000
FTUS41 KCTP 212102 AAC
TAFUNV
TAF AMD
KUNV 212102Z 2121/2218 23004KT P6SM SCT028 SCT040 BKN050
     FM220700 27004KT 2SM BR OVC003
      TEMPO 2210/2213 1/2SM FG OVC001
     FM221500 27004KT 4SM HZ OVC007=



000
FTUS41 KCTP 212102 AAC
TAFUNV
TAF AMD
KUNV 212102Z 2121/2218 23004KT P6SM SCT028 SCT040 BKN050
     FM220700 27004KT 2SM BR OVC003
      TEMPO 2210/2213 1/2SM FG OVC001
     FM221500 27004KT 4SM HZ OVC007=



000
FTUS41 KCTP 212039 AAB
TAFUNV
TAF AMD
KUNV 212039Z 2121/2218 21008KT P6SM -TSRA SCT045 OVC050CB
     FM220700 27004KT 2SM BR OVC003
      TEMPO 2210/2213 1/2SM FG OVC001
     FM221500 27004KT 4SM HZ OVC007=



000
FTUS41 KCTP 212039 AAB
TAFUNV
TAF AMD
KUNV 212039Z 2121/2218 21008KT P6SM -TSRA SCT045 OVC050CB
     FM220700 27004KT 2SM BR OVC003
      TEMPO 2210/2213 1/2SM FG OVC001
     FM221500 27004KT 4SM HZ OVC007=



000
FTUS41 KCTP 211934 AAA
TAFUNV
TAF AMD
KUNV 211934Z 2120/2218 VRB03KT 6SM TS VCTS SCT010 OVC030CB
     FM212100 VRB04KT P6SM BKN100
     FM220700 27004KT 2SM BR OVC003
      TEMPO 2210/2213 1/2SM FG OVC001
     FM221500 27004KT 4SM HZ OVC007=



000
FTUS41 KCTP 211934 AAA
TAFUNV
TAF AMD
KUNV 211934Z 2120/2218 VRB03KT 6SM TS VCTS SCT010 OVC030CB
     FM212100 VRB04KT P6SM BKN100
     FM220700 27004KT 2SM BR OVC003
      TEMPO 2210/2213 1/2SM FG OVC001
     FM221500 27004KT 4SM HZ OVC007=



000
FTUS41 KCTP 211721
TAFJST
TAF
KJST 211721Z 2118/2218 26011KT P6SM VCTS FEW025 BKN050CB
     FM220000 26005KT P6SM BKN100
     FM220400 26004KT 4SM BR OVC050
     FM220800 27004KT 2SM BR OVC003
      TEMPO 2211/2213 1/2SM FG OVC001
     FM221500 27004KT 4SM HZ OVC007=



000
FTUS41 KCTP 211721
TAFAOO
TAF
KAOO 211721Z 2118/2218 23005KT P6SM VCSH BKN040 BKN045 BKN090
     FM220000 VRB04KT P6SM BKN100
     FM220600 27004KT 2SM BR OVC003
      TEMPO 2210/2213 1/2SM FG OVC001
     FM221500 27004KT 4SM HZ OVC007=



000
FTUS41 KCTP 211721
TAFIPT
TAF
KIPT 211721Z 2118/2218 00000KT P6SM VCTS SCT025 BKN040CB
     FM220000 VRB03KT P6SM BKN100
     FM220400 27004KT 2SM BR OVC003
      TEMPO 2211/2213 1/2SM FG OVC001
     FM221500 27004KT 4SM HZ OVC007=



000
FTUS41 KCTP 211721
TAFUNV
TAF
KUNV 211721Z 2118/2218 22007KT P6SM VCTS SCT023 BKN050CB
     FM220000 VRB04KT P6SM BKN100
     FM220700 27004KT 2SM BR OVC003
      TEMPO 2210/2213 1/2SM FG OVC001
     FM221500 27004KT 4SM HZ OVC007=



000
FTUS41 KCTP 211721
TAFMDT
TAF
KMDT 211721Z 2118/2218 00000KT P6SM SCT045 SCT150
     FM212000 26005KT P6SM VCTS BKN050CB
     FM220000 VRB04KT P6SM BKN100
     FM220600 32002KT 4SM BR BKN250
      TEMPO 2211/2213 1SM BR OVC025
     FM221500 VRB03KT 6SM HZ BKN050=



000
FTUS41 KCTP 211721
TAFBFD
TAF
KBFD 211721Z 2118/2218 24007KT P6SM VCTS FEW024 SCT028 BKN040CB
     FM220000 VRB03KT P6SM BKN100
     FM220400 00000KT 2SM BR BKN100
      TEMPO 2208/2212 1/2SM FG OVC001
     FM221400 30002KT P6SM OVC015=



000
FTUS41 KCTP 211721
TAFMDT
TAF
KMDT 211721Z 2118/2218 00000KT P6SM SCT045 SCT150
     FM212000 26005KT P6SM VCTS BKN050CB
     FM220000 VRB04KT P6SM BKN100
     FM220600 32002KT 4SM BR BKN250
      TEMPO 2211/2213 1SM BR OVC025
     FM221500 VRB03KT 6SM HZ BKN050=



000
FTUS41 KCTP 211721
TAFBFD
TAF
KBFD 211721Z 2118/2218 24007KT P6SM VCTS FEW024 SCT028 BKN040CB
     FM220000 VRB03KT P6SM BKN100
     FM220400 00000KT 2SM BR BKN100
      TEMPO 2208/2212 1/2SM FG OVC001
     FM221400 30002KT P6SM OVC015=



000
FTUS41 KCTP 211721
TAFAOO
TAF
KAOO 211721Z 2118/2218 23005KT P6SM VCSH BKN040 BKN045 BKN090
     FM220000 VRB04KT P6SM BKN100
     FM220600 27004KT 2SM BR OVC003
      TEMPO 2210/2213 1/2SM FG OVC001
     FM221500 27004KT 4SM HZ OVC007=



000
FTUS41 KCTP 211721
TAFUNV
TAF
KUNV 211721Z 2118/2218 22007KT P6SM VCTS SCT023 BKN050CB
     FM220000 VRB04KT P6SM BKN100
     FM220700 27004KT 2SM BR OVC003
      TEMPO 2210/2213 1/2SM FG OVC001
     FM221500 27004KT 4SM HZ OVC007=



000
FTUS41 KCTP 211721
TAFJST
TAF
KJST 211721Z 2118/2218 26011KT P6SM VCTS FEW025 BKN050CB
     FM220000 26005KT P6SM BKN100
     FM220400 26004KT 4SM BR OVC050
     FM220800 27004KT 2SM BR OVC003
      TEMPO 2211/2213 1/2SM FG OVC001
     FM221500 27004KT 4SM HZ OVC007=



000
FTUS41 KCTP 211721
TAFIPT
TAF
KIPT 211721Z 2118/2218 00000KT P6SM VCTS SCT025 BKN040CB
     FM220000 VRB03KT P6SM BKN100
     FM220400 27004KT 2SM BR OVC003
      TEMPO 2211/2213 1/2SM FG OVC001
     FM221500 27004KT 4SM HZ OVC007=



000
FTUS41 KCTP 211544 AAB
TAFAOO
TAF AMD
KAOO 211544Z 2116/2212 VRB04KT P6SM FEW016
     FM211700 25005KT P6SM VCSH BKN050
     FM220000 VRB04KT P6SM BKN100=



000
FTUS41 KCTP 211544 AAC
TAFUNV
TAF AMD
KUNV 211544Z 2116/2212 22004KT P6SM SCT009 SCT045 BKN100
     FM211700 25005KT P6SM VCSH SCT025 BKN050
     FM220000 VRB04KT P6SM BKN100=



000
FTUS41 KCTP 211544 AAB
TAFIPT
TAF AMD
KIPT 211544Z 2116/2212 VRB03KT P6SM BKN022 OVC027
     FM211800 24005KT P6SM VCSH SCT025 BKN050
     FM220000 VRB03KT P6SM BKN100=



000
FTUS41 KCTP 211544 AAC
TAFBFD
TAF AMD
KBFD 211544Z 2116/2212 28004KT P6SM FEW023
     FM211700 28005KT P6SM VCSH BKN050
     FM220000 VRB03KT P6SM BKN100=



000
FTUS41 KCTP 211544 AAB
TAFMDT
TAF AMD
KMDT 211544Z 2116/2212 00000KT P6SM SCT045
     FM212000 26005KT P6SM VCSH BKN050
     FM220000 VRB04KT P6SM BKN100=



000
FTUS41 KCTP 211544 AAB
TAFJST
TAF AMD
KJST 211544Z 2116/2212 23007KT P6SM SCT016 SCT024
     FM211700 26008KT P6SM VCSH BKN050
     FM220000 26005KT P6SM BKN100=



000
FTUS41 KCTP 211544 AAC
TAFUNV
TAF AMD
KUNV 211544Z 2116/2212 22004KT P6SM SCT009 SCT045 BKN100
     FM211700 25005KT P6SM VCSH SCT025 BKN050
     FM220000 VRB04KT P6SM BKN100=



000
FTUS41 KCTP 211544 AAB
TAFJST
TAF AMD
KJST 211544Z 2116/2212 23007KT P6SM SCT016 SCT024
     FM211700 26008KT P6SM VCSH BKN050
     FM220000 26005KT P6SM BKN100=



000
FTUS41 KCTP 211544 AAB
TAFAOO
TAF AMD
KAOO 211544Z 2116/2212 VRB04KT P6SM FEW016
     FM211700 25005KT P6SM VCSH BKN050
     FM220000 VRB04KT P6SM BKN100=



000
FTUS41 KCTP 211544 AAC
TAFBFD
TAF AMD
KBFD 211544Z 2116/2212 28004KT P6SM FEW023
     FM211700 28005KT P6SM VCSH BKN050
     FM220000 VRB03KT P6SM BKN100=



000
FTUS41 KCTP 211544 AAB
TAFIPT
TAF AMD
KIPT 211544Z 2116/2212 VRB03KT P6SM BKN022 OVC027
     FM211800 24005KT P6SM VCSH SCT025 BKN050
     FM220000 VRB03KT P6SM BKN100=



000
FTUS41 KCTP 211544 AAB
TAFMDT
TAF AMD
KMDT 211544Z 2116/2212 00000KT P6SM SCT045
     FM212000 26005KT P6SM VCSH BKN050
     FM220000 VRB04KT P6SM BKN100=



000
FTUS41 KCTP 211342 AAB
TAFUNV
TAF AMD
KUNV 211342Z 2114/2212 00000KT 5SM BR SCT001
     FM211700 25005KT P6SM SCT025 BKN050
     FM220000 VRB04KT P6SM BKN100=



000
FTUS41 KCTP 211342 AAB
TAFUNV
TAF AMD
KUNV 211342Z 2114/2212 00000KT 5SM BR SCT001
     FM211700 25005KT P6SM SCT025 BKN050
     FM220000 VRB04KT P6SM BKN100=



000
FTUS41 KCTP 211341 AAB
TAFBFD
TAF AMD
KBFD 211341Z 2114/2212 23005KT P6SM SCT006
     FM211700 28005KT P6SM BKN050
     FM220000 VRB03KT P6SM BKN100=



000
FTUS41 KCTP 211341 AAB
TAFBFD
TAF AMD
KBFD 211341Z 2114/2212 23005KT P6SM SCT006
     FM211700 28005KT P6SM BKN050
     FM220000 VRB03KT P6SM BKN100=



000
FTUS41 KCTP 211244 AAA
TAFJST
TAF AMD
KJST 211244Z 2113/2212 27004KT P6SM SKC
     FM211400 25005KT P6SM SCT040
     FM211700 26008KT P6SM BKN050
     FM220000 26005KT P6SM BKN100=



000
FTUS41 KCTP 211244 AAA
TAFAOO
TAF AMD
KAOO 211244Z 2113/2212 18003KT 4SM BR SKC
     FM211700 25005KT P6SM BKN050
     FM220000 VRB04KT P6SM BKN100=



000
FTUS41 KCTP 211244 AAA
TAFMDT
TAF AMD
KMDT 211244Z 2113/2212 11003KT 6SM BR SCT006 BKN070
     FM211500 23004KT P6SM SCT050
     FM212000 26005KT P6SM BKN050
     FM220000 VRB04KT P6SM BKN100=



000
FTUS41 KCTP 211244 AAA
TAFBFD
TAF AMD
KBFD 211244Z 2113/2212 VRB03KT 4SM BR OVC002
     FM211700 28005KT P6SM BKN050
     FM220000 VRB03KT P6SM BKN100=



000
FTUS41 KCTP 211244 AAA
TAFAOO
TAF AMD
KAOO 211244Z 2113/2212 18003KT 4SM BR SKC
     FM211700 25005KT P6SM BKN050
     FM220000 VRB04KT P6SM BKN100=



000
FTUS41 KCTP 211244 AAA
TAFMDT
TAF AMD
KMDT 211244Z 2113/2212 11003KT 6SM BR SCT006 BKN070
     FM211500 23004KT P6SM SCT050
     FM212000 26005KT P6SM BKN050
     FM220000 VRB04KT P6SM BKN100=



000
FTUS41 KCTP 211244 AAA
TAFIPT
TAF AMD
KIPT 211244Z 2113/2212 00000KT 5SM -RA BR BKN009 BKN050 OVC090
     FM211500 23004KT P6SM BKN025
     FM211800 24005KT P6SM SCT025 BKN050
     FM220000 VRB03KT P6SM BKN100=



000
FTUS41 KCTP 211244 AAA
TAFUNV
TAF AMD
KUNV 211244Z 2113/2212 26003KT 3SM BR BKN001
     FM211700 25005KT P6SM SCT025 BKN050
     FM220000 VRB04KT P6SM BKN100=



000
FTUS41 KCTP 211244 AAA
TAFJST
TAF AMD
KJST 211244Z 2113/2212 27004KT P6SM SKC
     FM211400 25005KT P6SM SCT040
     FM211700 26008KT P6SM BKN050
     FM220000 26005KT P6SM BKN100=



000
FTUS41 KCTP 211244 AAA
TAFBFD
TAF AMD
KBFD 211244Z 2113/2212 VRB03KT 4SM BR OVC002
     FM211700 28005KT P6SM BKN050
     FM220000 VRB03KT P6SM BKN100=



000
FTUS41 KCTP 211244 AAA
TAFUNV
TAF AMD
KUNV 211244Z 2113/2212 26003KT 3SM BR BKN001
     FM211700 25005KT P6SM SCT025 BKN050
     FM220000 VRB04KT P6SM BKN100=



000
FTUS41 KCTP 211244 AAA
TAFIPT
TAF AMD
KIPT 211244Z 2113/2212 00000KT 5SM -RA BR BKN009 BKN050 OVC090
     FM211500 23004KT P6SM BKN025
     FM211800 24005KT P6SM SCT025 BKN050
     FM220000 VRB03KT P6SM BKN100=



000
FTUS41 KCTP 211138
TAFUNV
TAF
KUNV 211138Z 2112/2212 00000KT 1/2SM FG BKN001
     FM211230 00000KT 2SM BR SCT001 BKN025
     FM211300 24004KT P6SM SCT050
     FM211700 25005KT P6SM SCT025 BKN050
     FM220000 VRB04KT P6SM BKN100=



000
FTUS41 KCTP 211138
TAFIPT
TAF
KIPT 211138Z 2112/2212 00000KT 6SM BR OVC020
     FM211500 23004KT P6SM BKN025
     FM211800 24005KT P6SM SCT025 BKN050
     FM220000 VRB03KT P6SM BKN100=



000
FTUS41 KCTP 211138
TAFBFD
TAF
KBFD 211138Z 2112/2212 VRB03KT 1SM BR OVC002
     FM211300 25005KT P6SM SCT040
     FM211700 28005KT P6SM BKN050
     FM220000 VRB03KT P6SM BKN100=



000
FTUS41 KCTP 211138
TAFJST
TAF
KJST 211138Z 2112/2212 28005KT P6SM SCT100
     FM211400 25005KT P6SM SCT040
     FM211700 26008KT P6SM BKN050
     FM220000 26005KT P6SM BKN100=



000
FTUS41 KCTP 211138
TAFAOO
TAF
KAOO 211138Z 2112/2212 00000KT 2SM BR SCT001
     FM211230 VRB02KT 4SM BR FEW050
     FM211300 24004KT P6SM SCT050
     FM211700 25005KT P6SM BKN050
     FM220000 VRB04KT P6SM BKN100=



000
FTUS41 KCTP 211138
TAFMDT
TAF
KMDT 211138Z 2112/2212 00000KT 6SM BR FEW005 SCT050
     FM211500 23004KT P6SM SCT050
     FM212000 26005KT P6SM BKN050
     FM220000 VRB04KT P6SM BKN100=



000
FTUS41 KCTP 211138
TAFUNV
TAF
KUNV 211138Z 2112/2212 00000KT 1/2SM FG BKN001
     FM211230 00000KT 2SM BR SCT001 BKN025
     FM211300 24004KT P6SM SCT050
     FM211700 25005KT P6SM SCT025 BKN050
     FM220000 VRB04KT P6SM BKN100=



000
FTUS41 KCTP 211138
TAFIPT
TAF
KIPT 211138Z 2112/2212 00000KT 6SM BR OVC020
     FM211500 23004KT P6SM BKN025
     FM211800 24005KT P6SM SCT025 BKN050
     FM220000 VRB03KT P6SM BKN100=



000
FTUS41 KCTP 211138
TAFAOO
TAF
KAOO 211138Z 2112/2212 00000KT 2SM BR SCT001
     FM211230 VRB02KT 4SM BR FEW050
     FM211300 24004KT P6SM SCT050
     FM211700 25005KT P6SM BKN050
     FM220000 VRB04KT P6SM BKN100=



000
FTUS41 KCTP 211138
TAFJST
TAF
KJST 211138Z 2112/2212 28005KT P6SM SCT100
     FM211400 25005KT P6SM SCT040
     FM211700 26008KT P6SM BKN050
     FM220000 26005KT P6SM BKN100=



000
FTUS41 KCTP 211138
TAFMDT
TAF
KMDT 211138Z 2112/2212 00000KT 6SM BR FEW005 SCT050
     FM211500 23004KT P6SM SCT050
     FM212000 26005KT P6SM BKN050
     FM220000 VRB04KT P6SM BKN100=



000
FTUS41 KCTP 211138
TAFBFD
TAF
KBFD 211138Z 2112/2212 VRB03KT 1SM BR OVC002
     FM211300 25005KT P6SM SCT040
     FM211700 28005KT P6SM BKN050
     FM220000 VRB03KT P6SM BKN100=



000
FTUS41 KCTP 210932 AAE
TAFIPT
TAF AMD
KIPT 210932Z 2110/2206 VRB02KT 3SM BR SCT005
     FM211500 23004KT P6SM BKN025
     FM211800 24005KT P6SM SCT025 BKN050
     FM220000 VRB03KT P6SM BKN100=



000
FTUS41 KCTP 210932 AAD
TAFBFD
TAF AMD
KBFD 210932Z 2110/2206 00000KT 1 1/2SM BR SCT004
     FM211400 25005KT P6SM SCT040
     FM211700 28005KT P6SM BKN050
     FM220000 VRB03KT P6SM BKN100=



000
FTUS41 KCTP 210932 AAD
TAFBFD
TAF AMD
KBFD 210932Z 2110/2206 00000KT 1 1/2SM BR SCT004
     FM211400 25005KT P6SM SCT040
     FM211700 28005KT P6SM BKN050
     FM220000 VRB03KT P6SM BKN100=



000
FTUS41 KCTP 210932 AAB
TAFMDT
TAF AMD
KMDT 210932Z 2110/2206 14003KT 6SM BR SCT025
     FM211500 23004KT P6SM SCT050
     FM212000 26005KT P6SM BKN050
     FM220000 VRB04KT P6SM BKN100=



000
FTUS41 KCTP 210932 AAB
TAFJST
TAF AMD
KJST 210932Z 2110/2206 22004KT 4SM BR FEW002 SCT030
     FM211300 25005KT P6SM SCT040
     FM211700 26008KT P6SM BKN050
     FM220000 26005KT P6SM BKN100=



000
FTUS41 KCTP 210932 AAC
TAFAOO
TAF AMD
KAOO 210932Z 2110/2206 VRB03KT 2SM BR SCT015
     FM211400 24004KT 6SM HZ SCT025
     FM211700 25005KT P6SM BKN050
     FM220000 VRB04KT P6SM BKN100=



000
FTUS41 KCTP 210932 AAC
TAFAOO
TAF AMD
KAOO 210932Z 2110/2206 VRB03KT 2SM BR SCT015
     FM211400 24004KT 6SM HZ SCT025
     FM211700 25005KT P6SM BKN050
     FM220000 VRB04KT P6SM BKN100=



000
FTUS41 KCTP 210932 AAB
TAFJST
TAF AMD
KJST 210932Z 2110/2206 22004KT 4SM BR FEW002 SCT030
     FM211300 25005KT P6SM SCT040
     FM211700 26008KT P6SM BKN050
     FM220000 26005KT P6SM BKN100=



000
FTUS41 KCTP 210932 AAE
TAFIPT
TAF AMD
KIPT 210932Z 2110/2206 VRB02KT 3SM BR SCT005
     FM211500 23004KT P6SM BKN025
     FM211800 24005KT P6SM SCT025 BKN050
     FM220000 VRB03KT P6SM BKN100=



000
FTUS41 KCTP 210932 AAB
TAFMDT
TAF AMD
KMDT 210932Z 2110/2206 14003KT 6SM BR SCT025
     FM211500 23004KT P6SM SCT050
     FM212000 26005KT P6SM BKN050
     FM220000 VRB04KT P6SM BKN100=



000
FTUS41 KCTP 210932 AAC
TAFUNV
TAF AMD
KUNV 210932Z 2110/2206 23003KT 2SM BR SCT007
     FM211400 24004KT 6SM HZ BKN025
     FM211700 25005KT P6SM SCT025 BKN050
     FM220000 VRB04KT P6SM BKN100=



000
FTUS41 KCTP 210830 AAC
TAFBFD
TAF AMD
KBFD 210830Z 2109/2206 00000KT 4SM BR BKN100
     FM210840 VRB05KT 2SM TSRA OVC025CB
     FM210900 00000KT 2SM BR SCT030
     FM211400 25005KT P6SM SCT040
     FM211700 28005KT P6SM BKN050
     FM220000 VRB03KT P6SM BKN100=



000
FTUS41 KCTP 210830 AAC
TAFBFD
TAF AMD
KBFD 210830Z 2109/2206 00000KT 4SM BR BKN100
     FM210840 VRB05KT 2SM TSRA OVC025CB
     FM210900 00000KT 2SM BR SCT030
     FM211400 25005KT P6SM SCT040
     FM211700 28005KT P6SM BKN050
     FM220000 VRB03KT P6SM BKN100=



000
FTUS41 KCTP 210734 AAB
TAFAOO
TAF AMD
KAOO 210734Z 2108/2206 VRB03KT 2SM BR SCT005
     FM211400 24004KT 6SM HZ SCT100
     FM211700 25005KT P6SM BKN050
     FM220000 VRB04KT P6SM BKN100=



000
FTUS41 KCTP 210734 AAB
TAFAOO
TAF AMD
KAOO 210734Z 2108/2206 VRB03KT 2SM BR SCT005
     FM211400 24004KT 6SM HZ SCT100
     FM211700 25005KT P6SM BKN050
     FM220000 VRB04KT P6SM BKN100=



000
FTUS41 KCTP 210609 RRA
TAFJST
TAF
KJST 210609Z 2106/2206 21005KT 5SM BR SCT030
     FM210700 22003KT 4SM BR FEW003 SCT030
     FM211300 25005KT P6SM SCT040
     FM211700 26008KT P6SM BKN050
     FM220000 26005KT P6SM BKN100=



000
FTUS41 KCTP 210609 RRA
TAFAOO
TAF
KAOO 210609Z 2106/2206 VRB03KT 2SM BR SCT004
      TEMPO 2106/2108 3/4SM BR VV004
     FM211400 24004KT 6SM HZ SCT100
     FM211700 25005KT P6SM BKN050
     FM220000 VRB04KT P6SM BKN100=



000
FTUS41 KCTP 210609 RRA
TAFBFD
TAF
KBFD 210609Z 2106/2206 23003KT 6SM BR BKN100
     FM210800 24003KT 2SM BR SCT002
     FM211400 25005KT P6SM SCT040
     FM211700 28005KT P6SM BKN050
     FM220000 VRB03KT P6SM BKN100=



000
FTUS41 KCTP 210609 RRA
TAFBFD
TAF
KBFD 210609Z 2106/2206 23003KT 6SM BR BKN100
     FM210800 24003KT 2SM BR SCT002
     FM211400 25005KT P6SM SCT040
     FM211700 28005KT P6SM BKN050
     FM220000 VRB03KT P6SM BKN100=



000
FTUS41 KCTP 210609 RRA
TAFMDT
TAF
KMDT 210609Z 2106/2206 18004KT P6SM SCT050
     FM210900 17003KT 6SM BR BKN025
     FM211500 23004KT P6SM SCT050
     FM212000 26005KT P6SM BKN050
     FM220000 VRB04KT P6SM BKN100=



000
FTUS41 KCTP 210609 RRA
TAFIPT
TAF
KIPT 210609Z 2106/2206 VRB03KT P6SM OVC015
     FM210630 VRB03KT 4SM -SHRA OVC010
     FM210800 VRB02KT 3SM BR SCT005 BKN015
     FM211500 23004KT P6SM BKN025
     FM211800 24005KT P6SM SCT025 BKN050
     FM220000 VRB03KT P6SM BKN100=



000
FTUS41 KCTP 210609 RRA
TAFMDT
TAF
KMDT 210609Z 2106/2206 18004KT P6SM SCT050
     FM210900 17003KT 6SM BR BKN025
     FM211500 23004KT P6SM SCT050
     FM212000 26005KT P6SM BKN050
     FM220000 VRB04KT P6SM BKN100=



000
FTUS41 KCTP 210609 RRA
TAFIPT
TAF
KIPT 210609Z 2106/2206 VRB03KT P6SM OVC015
     FM210630 VRB03KT 4SM -SHRA OVC010
     FM210800 VRB02KT 3SM BR SCT005 BKN015
     FM211500 23004KT P6SM BKN025
     FM211800 24005KT P6SM SCT025 BKN050
     FM220000 VRB03KT P6SM BKN100=



000
FTUS41 KCTP 210609 RRA
TAFAOO
TAF
KAOO 210609Z 2106/2206 VRB03KT 2SM BR SCT004
      TEMPO 2106/2108 3/4SM BR VV004
     FM211400 24004KT 6SM HZ SCT100
     FM211700 25005KT P6SM BKN050
     FM220000 VRB04KT P6SM BKN100=



000
FTUS41 KCTP 210609 RRA
TAFUNV
TAF
KUNV 210609Z 2106/2206 24003KT 4SM BR SCT010
     FM210700 21003KT 2SM BR SCT005
     FM211400 24004KT 6SM HZ BKN025
     FM211700 25005KT P6SM SCT025 BKN050
     FM220000 VRB04KT P6SM BKN100=



000
FTUS41 KCTP 210609 RRA
TAFUNV
TAF
KUNV 210609Z 2106/2206 24003KT 4SM BR SCT010
     FM210700 21003KT 2SM BR SCT005
     FM211400 24004KT 6SM HZ BKN025
     FM211700 25005KT P6SM SCT025 BKN050
     FM220000 VRB04KT P6SM BKN100=



000
FTUS41 KCTP 210609 RRA
TAFJST
TAF
KJST 210609Z 2106/2206 21005KT 5SM BR SCT030
     FM210700 22003KT 4SM BR FEW003 SCT030
     FM211300 25005KT P6SM SCT040
     FM211700 26008KT P6SM BKN050
     FM220000 26005KT P6SM BKN100=



000
FTUS41 KCTP 210500 AAB
TAFUNV
TAF AMD
KUNV 210500Z 2105/2124 20003KT P6SM VCTS SCT020 BKN050CB OVC100
     FM210700 23003KT 2SM BR BKN015
     FM211400 27007KT P6SM SCT030
     FM211600 28008KT P6SM BKN035=



000
FTUS41 KCTP 210500 AAB
TAFUNV
TAF AMD
KUNV 210500Z 2105/2124 20003KT P6SM VCTS SCT020 BKN050CB OVC100
     FM210700 23003KT 2SM BR BKN015
     FM211400 27007KT P6SM SCT030
     FM211600 28008KT P6SM BKN035=



000
FTUS41 KCTP 210326 AAA
TAFMDT
TAF AMD
KMDT 210326Z 2103/2124 15005KT P6SM SCT040 BKN100
     FM210700 14003KT 4SM BR BKN030
     FM211000 VRB03KT 2SM BR BKN015
     FM211500 21006KT P6SM SCT030
     FM211700 26007KT P6SM VCSH BKN035=



000
FTUS41 KCTP 210326 AAB
TAFBFD
TAF AMD
KBFD 210326Z 2103/2124 VRB05KT P6SM SCT025 BKN100
     FM210500 23003KT 3SM BR SCT005
     FM210800 VRB03KT 1/2SM FG BKN002
     FM211400 27007KT P6SM SCT030
     FM211600 28008KT P6SM BKN035=



000
FTUS41 KCTP 210326 AAD
TAFIPT
TAF AMD
KIPT 210326Z 2103/2124 08008KT P6SM VCSH BKN015 OVC050
     FM210600 14006KT 5SM -SHRA BR SCT004 BKN030
     FM211000 VRB03KT 2SM BR BKN004
     FM211500 26006KT P6SM SCT030
     FM211700 27008KT P6SM BKN035=



000
FTUS41 KCTP 210326 AAA
TAFAOO
TAF AMD
KAOO 210326Z 2103/2124 VRB05KT P6SM SCT035 BKN090
     FM210700 22003KT 3SM -SHRA BR BKN018
     FM211000 VRB03KT 2SM BR BKN009
     FM211400 27007KT P6SM SCT030
     FM211600 28008KT P6SM BKN035=



000
FTUS41 KCTP 210326 AAA
TAFUNV
TAF AMD
KUNV 210326Z 2103/2124 21005KT P6SM VCTS FEW009 BKN015 OVC035CB
     FM210500 23003KT 2SM -TSRA BR BKN030CB
     FM210700 VRB03KT 2SM BR BKN012
     FM211400 27007KT P6SM SCT030
     FM211600 28008KT P6SM BKN035=



000
FTUS41 KCTP 210326 AAD
TAFIPT
TAF AMD
KIPT 210326Z 2103/2124 08008KT P6SM VCSH BKN015 OVC050
     FM210600 14006KT 5SM -SHRA BR SCT004 BKN030
     FM211000 VRB03KT 2SM BR BKN004
     FM211500 26006KT P6SM SCT030
     FM211700 27008KT P6SM BKN035=



000
FTUS41 KCTP 210326 AAB
TAFBFD
TAF AMD
KBFD 210326Z 2103/2124 VRB05KT P6SM SCT025 BKN100
     FM210500 23003KT 3SM BR SCT005
     FM210800 VRB03KT 1/2SM FG BKN002
     FM211400 27007KT P6SM SCT030
     FM211600 28008KT P6SM BKN035=



000
FTUS41 KCTP 210326 AAA
TAFAOO
TAF AMD
KAOO 210326Z 2103/2124 VRB05KT P6SM SCT035 BKN090
     FM210700 22003KT 3SM -SHRA BR BKN018
     FM211000 VRB03KT 2SM BR BKN009
     FM211400 27007KT P6SM SCT030
     FM211600 28008KT P6SM BKN035=



000
FTUS41 KCTP 210326 AAA
TAFMDT
TAF AMD
KMDT 210326Z 2103/2124 15005KT P6SM SCT040 BKN100
     FM210700 14003KT 4SM BR BKN030
     FM211000 VRB03KT 2SM BR BKN015
     FM211500 21006KT P6SM SCT030
     FM211700 26007KT P6SM VCSH BKN035=



000
FTUS41 KCTP 210326 AAA
TAFJST
TAF AMD
KJST 210326Z 2103/2124 22005KT P6SM VCSH SCT030 BKN090
     FM210700 23003KT 4SM BR SCT005
     FM210900 24003KT 1SM BR SCT005 BKN009
     FM211400 28007KT P6SM SCT030
     FM211600 29008KT P6SM BKN035=



000
FTUS41 KCTP 210326 AAA
TAFJST
TAF AMD
KJST 210326Z 2103/2124 22005KT P6SM VCSH SCT030 BKN090
     FM210700 23003KT 4SM BR SCT005
     FM210900 24003KT 1SM BR SCT005 BKN009
     FM211400 28007KT P6SM SCT030
     FM211600 29008KT P6SM BKN035=



000
FTUS41 KCTP 210326 AAA
TAFUNV
TAF AMD
KUNV 210326Z 2103/2124 21005KT P6SM VCTS FEW009 BKN015 OVC035CB
     FM210500 23003KT 2SM -TSRA BR BKN030CB
     FM210700 VRB03KT 2SM BR BKN012
     FM211400 27007KT P6SM SCT030
     FM211600 28008KT P6SM BKN035=



000
FTUS41 KCTP 210152 AAC
TAFIPT
TAF AMD
KIPT 210152Z 2102/2124 05006KT P6SM VCSH BKN015 OVC050
     FM210600 14006KT 5SM -SHRA BR SCT004 BKN030
     FM211000 VRB03KT 2SM BR BKN004
     FM211500 26006KT P6SM SCT030
     FM211700 27008KT P6SM BKN035=



000
FTUS41 KCTP 210152 AAC
TAFIPT
TAF AMD
KIPT 210152Z 2102/2124 05006KT P6SM VCSH BKN015 OVC050
     FM210600 14006KT 5SM -SHRA BR SCT004 BKN030
     FM211000 VRB03KT 2SM BR BKN004
     FM211500 26006KT P6SM SCT030
     FM211700 27008KT P6SM BKN035=



000
FTUS41 KCTP 210048 AAA
TAFBFD
TAF AMD
KBFD 210048Z 2101/2124 VRB05KT P6SM SCT025
     FM210300 23003KT 3SM BR SCT005
     FM210800 VRB03KT 1/2SM FG BKN002
     FM211400 27007KT P6SM SCT030
     FM211600 28008KT P6SM BKN035=



000
FTUS41 KCTP 210048 AAA
TAFBFD
TAF AMD
KBFD 210048Z 2101/2124 VRB05KT P6SM SCT025
     FM210300 23003KT 3SM BR SCT005
     FM210800 VRB03KT 1/2SM FG BKN002
     FM211400 27007KT P6SM SCT030
     FM211600 28008KT P6SM BKN035=



000
FTUS41 KCTP 210048 AAB
TAFIPT
TAF AMD
KIPT 210048Z 2101/2124 11006KT P6SM VCSH SCT019 SCT090 BKN110
     FM210600 14006KT 3SM -SHRA BR SCT004 BKN030
     FM211000 VRB03KT 2SM BR BKN004
     FM211500 26006KT P6SM SCT030
     FM211700 27008KT P6SM BKN035=



000
FTUS41 KCTP 210048 AAB
TAFIPT
TAF AMD
KIPT 210048Z 2101/2124 11006KT P6SM VCSH SCT019 SCT090 BKN110
     FM210600 14006KT 3SM -SHRA BR SCT004 BKN030
     FM211000 VRB03KT 2SM BR BKN004
     FM211500 26006KT P6SM SCT030
     FM211700 27008KT P6SM BKN035=



000
FTUS41 KCTP 202339 AAA
TAFIPT
TAF AMD
KIPT 202339Z 2100/2124 07007G15KT P6SM VCSH BKN015
     FM210600 14006KT 3SM -SHRA BR SCT004 BKN030
     FM211000 VRB03KT 2SM BR BKN004
     FM211500 26006KT P6SM SCT030
     FM211700 27008KT P6SM BKN035=



000
FTUS41 KCTP 202339 AAA
TAFIPT
TAF AMD
KIPT 202339Z 2100/2124 07007G15KT P6SM VCSH BKN015
     FM210600 14006KT 3SM -SHRA BR SCT004 BKN030
     FM211000 VRB03KT 2SM BR BKN004
     FM211500 26006KT P6SM SCT030
     FM211700 27008KT P6SM BKN035=



000
FTUS41 KCTP 202333
TAFJST
TAF
KJST 202333Z 2100/2124 24005KT P6SM SCT030
     FM210400 23003KT 4SM BR SCT005
     FM210900 24003KT 1SM BR SCT005 BKN009
     FM211400 28007KT P6SM SCT030
     FM211600 29008KT P6SM BKN035=



000
FTUS41 KCTP 202333
TAFAOO
TAF
KAOO 202333Z 2100/2124 VRB05KT P6SM SCT030
     FM210400 22003KT 3SM -SHRA BR BKN018
     FM211000 VRB03KT 2SM BR BKN009
     FM211400 27007KT P6SM SCT030
     FM211600 28008KT P6SM BKN035=



000
FTUS41 KCTP 202333
TAFIPT
TAF
KIPT 202333Z 2100/2124 15008G15KT P6SM VCSH SCT030 BKN100
     FM210600 14006KT 3SM -SHRA BR SCT004 BKN030
     FM211000 VRB03KT 2SM BR BKN004
     FM211500 26006KT P6SM SCT030
     FM211700 27008KT P6SM BKN035=



000
FTUS41 KCTP 202333
TAFUNV
TAF
KUNV 202333Z 2100/2124 21005KT P6SM FEW009 SCT035
     FM210400 23003KT 3SM -SHRA BR BKN030
     FM211000 VRB03KT 2SM BR BKN012
     FM211400 27007KT P6SM SCT030
     FM211600 28008KT P6SM BKN035=



000
FTUS41 KCTP 202333
TAFMDT
TAF
KMDT 202333Z 2100/2124 15005KT P6SM SCT040 BKN100
     FM210700 14003KT 4SM -SHRA BR BKN030
     FM211000 VRB03KT 2SM BR BKN015
     FM211500 21006KT P6SM SCT030
     FM211700 26007KT P6SM VCSH BKN035=



000
FTUS41 KCTP 202333
TAFBFD
TAF
KBFD 202333Z 2100/2124 VRB05KT P6SM SCT025
      TEMPO 2100/2101 25008G20KT 1SM +TSRA BR OVC015CB
     FM210300 23003KT 3SM BR SCT005
     FM210800 VRB03KT 1/2SM FG BKN002
     FM211400 27007KT P6SM SCT030
     FM211600 28008KT P6SM BKN035=



000
FTUS41 KCTP 202333
TAFIPT
TAF
KIPT 202333Z 2100/2124 15008G15KT P6SM VCSH SCT030 BKN100
     FM210600 14006KT 3SM -SHRA BR SCT004 BKN030
     FM211000 VRB03KT 2SM BR BKN004
     FM211500 26006KT P6SM SCT030
     FM211700 27008KT P6SM BKN035=



000
FTUS41 KCTP 202333
TAFBFD
TAF
KBFD 202333Z 2100/2124 VRB05KT P6SM SCT025
      TEMPO 2100/2101 25008G20KT 1SM +TSRA BR OVC015CB
     FM210300 23003KT 3SM BR SCT005
     FM210800 VRB03KT 1/2SM FG BKN002
     FM211400 27007KT P6SM SCT030
     FM211600 28008KT P6SM BKN035=



000
FTUS41 KCTP 202333
TAFAOO
TAF
KAOO 202333Z 2100/2124 VRB05KT P6SM SCT030
     FM210400 22003KT 3SM -SHRA BR BKN018
     FM211000 VRB03KT 2SM BR BKN009
     FM211400 27007KT P6SM SCT030
     FM211600 28008KT P6SM BKN035=



000
FTUS41 KCTP 202333
TAFMDT
TAF
KMDT 202333Z 2100/2124 15005KT P6SM SCT040 BKN100
     FM210700 14003KT 4SM -SHRA BR BKN030
     FM211000 VRB03KT 2SM BR BKN015
     FM211500 21006KT P6SM SCT030
     FM211700 26007KT P6SM VCSH BKN035=



000
FTUS41 KCTP 202333
TAFJST
TAF
KJST 202333Z 2100/2124 24005KT P6SM SCT030
     FM210400 23003KT 4SM BR SCT005
     FM210900 24003KT 1SM BR SCT005 BKN009
     FM211400 28007KT P6SM SCT030
     FM211600 29008KT P6SM BKN035=



000
FTUS41 KCTP 202333
TAFUNV
TAF
KUNV 202333Z 2100/2124 21005KT P6SM FEW009 SCT035
     FM210400 23003KT 3SM -SHRA BR BKN030
     FM211000 VRB03KT 2SM BR BKN012
     FM211400 27007KT P6SM SCT030
     FM211600 28008KT P6SM BKN035=



000
FTUS41 KCTP 202131 AAA
TAFAOO
TAF AMD
KAOO 202131Z 2022/2118 24005KT P6SM SCT030
     FM210400 24003KT 3SM BR SCT010
     FM211400 27005KT P6SM SCT025 BKN050=



000
FTUS41 KCTP 202131 AAA
TAFJST
TAF AMD
KJST 202131Z 2022/2118 26005KT P6SM SCT035
     FM210300 23003KT 4SM BR SCT005
     FM211400 26005KT P6SM SCT025 BKN050=



000
FTUS41 KCTP 202131 AAA
TAFUNV
TAF AMD
KUNV 202131Z 2022/2118 24005KT P6SM SCT030
     FM210400 24003KT 3SM BR SCT010
     FM211400 27005KT P6SM SCT025 BKN050=



000
FTUS41 KCTP 202131 AAB
TAFMDT
TAF AMD
KMDT 202131Z 2022/2118 17005KT P6SM VCSH BKN040
      TEMPO 2100/2102 2SM TSRA BR OVC030CB
     FM210300 VRB03KT 6SM BR VCSH BKN050
     FM210600 VRB03KT 4SM BR SCT015
     FM211500 27005KT P6SM SCT025 BKN050=



000
FTUS41 KCTP 202131 AAB
TAFBFD
TAF AMD
KBFD 202131Z 2022/2118 19007KT P6SM SCT025
      TEMPO 2023/2101 25008G20KT 1SM +TSRA BR OVC015CB
     FM210300 23003KT 3SM BR SCT005
     FM211400 27005KT P6SM SCT025 BKN050=



000
FTUS41 KCTP 202131 AAC
TAFIPT
TAF AMD
KIPT 202131Z 2022/2118 17008G15KT P6SM SCT025 BKN100
     FM202300 VRB03KT P6SM BKN030
     FM210600 VRB02KT 4SM BR SCT004
     FM211500 VRB04KT P6SM SCT025 BKN050=



000
FTUS41 KCTP 202051 AAA
TAFMDT
TAF AMD
KMDT 202051Z 2021/2118 17005KT P6SM VCSH BKN050
      TEMPO 2023/2102 2SM TSRA BR OVC030CB
     FM210300 VRB03KT 6SM BR VCSH BKN050
     FM210600 VRB03KT 4SM BR SCT015
     FM211500 27005KT P6SM SCT025 BKN050=



000
FTUS41 KCTP 202051 AAA
TAFMDT
TAF AMD
KMDT 202051Z 2021/2118 17005KT P6SM VCSH BKN050
      TEMPO 2023/2102 2SM TSRA BR OVC030CB
     FM210300 VRB03KT 6SM BR VCSH BKN050
     FM210600 VRB03KT 4SM BR SCT015
     FM211500 27005KT P6SM SCT025 BKN050=



000
FTUS41 KCTP 202050 AAB
TAFIPT
TAF AMD
KIPT 202050Z 2021/2118 17008G15KT P6SM -RA FEW029 BKN045 OVC110
     FM202300 VRB03KT P6SM BKN050
     FM210600 VRB02KT 4SM BR SCT004
     FM211500 VRB04KT P6SM SCT025 BKN050=



000
FTUS41 KCTP 202050 AAB
TAFIPT
TAF AMD
KIPT 202050Z 2021/2118 17008G15KT P6SM -RA FEW029 BKN045 OVC110
     FM202300 VRB03KT P6SM BKN050
     FM210600 VRB02KT 4SM BR SCT004
     FM211500 VRB04KT P6SM SCT025 BKN050=



000
FTUS41 KCTP 202049 AAA
TAFBFD
TAF AMD
KBFD 202049Z 2021/2118 19007KT P6SM BKN025
      TEMPO 2023/2101 25008G20KT 1SM +TSRA BR OVC015CB
     FM210300 23003KT 3SM BR SCT005
     FM211400 27005KT P6SM SCT025 BKN050=



000
FTUS41 KCTP 201934 AAA
TAFIPT
TAF AMD
KIPT 201934Z 2020/2118 00000KT P6SM -RA FEW029 BKN045 OVC110
     FM202200 VRB03KT P6SM BKN050
     FM210600 VRB02KT 4SM BR SCT004
     FM211500 VRB04KT P6SM SCT025 BKN050=



000
FTUS41 KCTP 201934 AAA
TAFIPT
TAF AMD
KIPT 201934Z 2020/2118 00000KT P6SM -RA FEW029 BKN045 OVC110
     FM202200 VRB03KT P6SM BKN050
     FM210600 VRB02KT 4SM BR SCT004
     FM211500 VRB04KT P6SM SCT025 BKN050=



000
FTUS41 KCTP 201759
TAFJST
TAF
KJST 201759Z 2018/2118 VRB05KT P6SM SCT050
     FM202100 21005KT P6SM SCT050
     FM210300 23003KT 4SM BR SCT005
     FM211400 26005KT P6SM SCT025 BKN050=



000
FTUS41 KCTP 201759
TAFBFD
TAF
KBFD 201759Z 2018/2118 17005KT P6SM SCT050 BKN100
     FM202100 20005KT P6SM SCT050
     FM210300 23003KT 3SM BR SCT005
     FM211400 27005KT P6SM SCT025 BKN050=



000
FTUS41 KCTP 201759
TAFUNV
TAF
KUNV 201759Z 2018/2118 VRB03KT 5SM HZ BKN025
     FM201900 21003KT P6SM SCT050 BKN100
     FM202100 20005KT P6SM SCT050
     FM210400 24003KT 3SM BR SCT010
     FM211400 27005KT P6SM SCT025 BKN050=



000
FTUS41 KCTP 201759
TAFIPT
TAF
KIPT 201759Z 2018/2118 00000KT P6SM VCSH OVC015
     FM201900 VRB03KT 4SM -SHRA OVC025
     FM202200 VRB03KT P6SM BKN050
     FM210600 VRB02KT 4SM BR SCT004
     FM211500 VRB04KT P6SM SCT025 BKN050=



000
FTUS41 KCTP 201759
TAFAOO
TAF
KAOO 201759Z 2018/2118 VRB05KT P6SM SCT050 BKN100
     FM202100 19005KT P6SM SCT050
     FM210400 24003KT 3SM BR SCT010
     FM211400 27005KT P6SM SCT025 BKN050=



000
FTUS41 KCTP 201759
TAFJST
TAF
KJST 201759Z 2018/2118 VRB05KT P6SM SCT050
     FM202100 21005KT P6SM SCT050
     FM210300 23003KT 4SM BR SCT005
     FM211400 26005KT P6SM SCT025 BKN050=



000
FTUS41 KCTP 201759
TAFBFD
TAF
KBFD 201759Z 2018/2118 17005KT P6SM SCT050 BKN100
     FM202100 20005KT P6SM SCT050
     FM210300 23003KT 3SM BR SCT005
     FM211400 27005KT P6SM SCT025 BKN050=



000
FTUS41 KCTP 201759
TAFMDT
TAF
KMDT 201759Z 2018/2118 17005KT P6SM BKN050
     FM202000 18005KT P6SM -SHRA VCTS BKN050CB
      TEMPO 2020/2022 3SM TSRA OVC025CB
     FM210300 VRB03KT 6SM BR VCSH BKN050
     FM210600 VRB03KT 4SM BR SCT015
     FM211500 27005KT P6SM SCT025 BKN050=



000
FTUS41 KCTP 201759
TAFUNV
TAF
KUNV 201759Z 2018/2118 VRB03KT 5SM HZ BKN025
     FM201900 21003KT P6SM SCT050 BKN100
     FM202100 20005KT P6SM SCT050
     FM210400 24003KT 3SM BR SCT010
     FM211400 27005KT P6SM SCT025 BKN050=



000
FTUS41 KCTP 201759
TAFAOO
TAF
KAOO 201759Z 2018/2118 VRB05KT P6SM SCT050 BKN100
     FM202100 19005KT P6SM SCT050
     FM210400 24003KT 3SM BR SCT010
     FM211400 27005KT P6SM SCT025 BKN050=



000
FTUS41 KCTP 201759
TAFMDT
TAF
KMDT 201759Z 2018/2118 17005KT P6SM BKN050
     FM202000 18005KT P6SM -SHRA VCTS BKN050CB
      TEMPO 2020/2022 3SM TSRA OVC025CB
     FM210300 VRB03KT 6SM BR VCSH BKN050
     FM210600 VRB03KT 4SM BR SCT015
     FM211500 27005KT P6SM SCT025 BKN050=



000
FTUS41 KCTP 201759
TAFIPT
TAF
KIPT 201759Z 2018/2118 00000KT P6SM VCSH OVC015
     FM201900 VRB03KT 4SM -SHRA OVC025
     FM202200 VRB03KT P6SM BKN050
     FM210600 VRB02KT 4SM BR SCT004
     FM211500 VRB04KT P6SM SCT025 BKN050=



000
FTUS41 KCTP 201552 AAB
TAFAOO
TAF AMD
KAOO 201552Z 2016/2112 19005KT 5SM -SHRA SCT050 OVC100
     FM201800 20007KT P6SM VCTS SCT025 BKN050CB
     FM202300 22004KT 5SM HZ SCT050=



000
FTUS41 KCTP 201552 AAB
TAFAOO
TAF AMD
KAOO 201552Z 2016/2112 19005KT 5SM -SHRA SCT050 OVC100
     FM201800 20007KT P6SM VCTS SCT025 BKN050CB
     FM202300 22004KT 5SM HZ SCT050=



000
FTUS41 KCTP 201551 AAB
TAFJST
TAF AMD
KJST 201551Z 2016/2112 VRB03KT 3SM -SHRA SCT025 OVC050
     FM201800 21008KT P6SM VCTS BKN040CB
     FM202200 22005KT P6SM SCT040=



000
FTUS41 KCTP 201551 AAB
TAFJST
TAF AMD
KJST 201551Z 2016/2112 VRB03KT 3SM -SHRA SCT025 OVC050
     FM201800 21008KT P6SM VCTS BKN040CB
     FM202200 22005KT P6SM SCT040=



000
FTUS41 KCTP 201548 AAA
TAFMDT
TAF AMD
KMDT 201548Z 2016/2112 13005KT P6SM SCT025 BKN050
     FM202000 14005KT P6SM -SHRA VCTS BKN050CB
      TEMPO 2020/2024 3SM +SHRA OVC025
     FM210300 15005KT 6SM BR VCSH BKN050
     FM210600 VRB03KT 3SM BR SCT050=



000
FTUS41 KCTP 201548 AAA
TAFMDT
TAF AMD
KMDT 201548Z 2016/2112 13005KT P6SM SCT025 BKN050
     FM202000 14005KT P6SM -SHRA VCTS BKN050CB
      TEMPO 2020/2024 3SM +SHRA OVC025
     FM210300 15005KT 6SM BR VCSH BKN050
     FM210600 VRB03KT 3SM BR SCT050=



000
FTUS41 KCTP 201541 AAA
TAFIPT
TAF AMD
KIPT 201541Z 2016/2112 VRB03KT P6SM OVC025
     FM201800 14005KT P6SM -SHRA VCTS SCT025 BKN050CB
      TEMPO 2018/2022 3SM +SHRA OVC050
     FM210300 VRB04KT P6SM VCSH BKN050
     FM210600 VRB02KT 4SM BR SCT005=



000
FTUS41 KCTP 201541 AAA
TAFIPT
TAF AMD
KIPT 201541Z 2016/2112 VRB03KT P6SM OVC025
     FM201800 14005KT P6SM -SHRA VCTS SCT025 BKN050CB
      TEMPO 2018/2022 3SM +SHRA OVC050
     FM210300 VRB04KT P6SM VCSH BKN050
     FM210600 VRB02KT 4SM BR SCT005=



000
FTUS41 KCTP 201535 AAB
TAFUNV
TAF AMD
KUNV 201535Z 2016/2112 18005KT 2SM SHRA OVC015
      TEMPO 2016/2017 3/4SM +RA OVC010
     FM201700 20005KT 5SM -SHRA OVC025
     FM202000 21005KT P6SM VCTS BKN050CB=



000
FTUS41 KCTP 201535 AAB
TAFUNV
TAF AMD
KUNV 201535Z 2016/2112 18005KT 2SM SHRA OVC015
      TEMPO 2016/2017 3/4SM +RA OVC010
     FM201700 20005KT 5SM -SHRA OVC025
     FM202000 21005KT P6SM VCTS BKN050CB=



000
FTUS41 KCTP 201534 AAA
TAFBFD
TAF AMD
KBFD 201534Z 2016/2112 20005KT P6SM VCSH SCT050 OVC100
     FM202000 20007KT P6SM VCTS BKN050CB
     FM210300 20004KT 4SM BR SCT050=



000
FTUS41 KCTP 201534 AAA
TAFBFD
TAF AMD
KBFD 201534Z 2016/2112 20005KT P6SM VCSH SCT050 OVC100
     FM202000 20007KT P6SM VCTS BKN050CB
     FM210300 20004KT 4SM BR SCT050=



    US Dept of Commerce
    National Oceanic and Atmospheric Administration
    National Weather Service
    1325 East West Highway
    Silver Spring, MD 20910
    Page Author: NWS Internet Services Team
Disclaimer
Information Quality
Credits
Glossary
Privacy Policy
Freedom of Information Act (FOIA)
About Us
Career Opportunities